UPS276 CYYC-LOWW
Flight info
| Callsign | UPS276 |
|---|---|
| Flight time | 9h 52m |
| Altitude | 37000 |
| Route | LOMLO DCT POLLE DCT 5990N DCT 6180N DCT DAXER DCT FEDDY DCT IKMAN/M082F370 DCT EMBOK DCT 6450N DCT 6440N DCT 6330N DCT 6320N DCT 6315N DCT 6210N DCT GUNPA/N0470F370 DCT RAMUD DCT BEVRA DCT PIZID DCT GESTO DCT ZUCKA DCT SODRO DCT ARMUT DCT DEXIT DCT VENEN |
| Aircraft | A343/H-SDE2E3FGHIJ4J5M1RWXY/LB1D1 |
Departure
| Time | 2026-04-25 14:01 |
|---|---|
| Airport | Calgary International Airport (CYYC) |
Arrival
| Time | 2026-04-25 23:54 |
|---|---|
| Airport | Vienna International Airport (LOWW) |
| Time | Latitude | Longitude | Altitude | Speed | Heading |
|---|---|---|---|---|---|
| 2026-04-25 13:18 | 51.13066 | -114.03504 | 3542 ft | 0 kts | 30° |
| 2026-04-25 13:43 | 51.13064 | -114.03506 | 3542 ft | 2 kts | 30° |
| 2026-04-25 13:43 | 51.13050 | -114.03519 | 3543 ft | 2 kts | 32° |
| 2026-04-25 13:43 | 51.13036 | -114.03534 | 3543 ft | 2 kts | 34° |
| 2026-04-25 13:43 | 51.13022 | -114.03549 | 3543 ft | 2 kts | 39° |
| 2026-04-25 13:44 | 51.13010 | -114.03566 | 3543 ft | 2 kts | 49° |
| 2026-04-25 13:44 | 51.13000 | -114.03587 | 3543 ft | 2 kts | 77° |
| 2026-04-25 13:44 | 51.12999 | -114.03612 | 3543 ft | 2 kts | 119° |
| 2026-04-25 13:44 | 51.13002 | -114.03621 | 3543 ft | 0 kts | 123° |
| 2026-04-25 13:48 | 51.12998 | -114.03612 | 3543 ft | 4 kts | 123° |
| 2026-04-25 13:48 | 51.12970 | -114.03548 | 3542 ft | 10 kts | 129° |
| 2026-04-25 13:48 | 51.12911 | -114.03522 | 3543 ft | 8 kts | 185° |
| 2026-04-25 13:49 | 51.12851 | -114.03487 | 3543 ft | 9 kts | 130° |
| 2026-04-25 13:49 | 51.12814 | -114.03391 | 3543 ft | 12 kts | 121° |
| 2026-04-25 13:49 | 51.12779 | -114.03294 | 3544 ft | 9 kts | 119° |
| 2026-04-25 13:49 | 51.12754 | -114.03222 | 3541 ft | 6 kts | 119° |
| 2026-04-25 13:50 | 51.12738 | -114.03176 | 3544 ft | 4 kts | 119° |
| 2026-04-25 13:50 | 51.12706 | -114.03089 | 3540 ft | 17 kts | 120° |
| 2026-04-25 13:50 | 51.12637 | -114.02900 | 3545 ft | 21 kts | 117° |
| 2026-04-25 13:50 | 51.12603 | -114.02653 | 3546 ft | 25 kts | 92° |
| 2026-04-25 13:51 | 51.12603 | -114.02408 | 3546 ft | 18 kts | 90° |
| 2026-04-25 13:51 | 51.12604 | -114.02348 | 3546 ft | 0 kts | 89° |
| 2026-04-25 13:53 | 51.12604 | -114.02340 | 3543 ft | 4 kts | 89° |
| 2026-04-25 13:54 | 51.12604 | -114.02275 | 3546 ft | 13 kts | 89° |
| 2026-04-25 13:54 | 51.12604 | -114.02072 | 3544 ft | 21 kts | 90° |
| 2026-04-25 13:54 | 51.12603 | -114.01861 | 3547 ft | 17 kts | 91° |
| 2026-04-25 13:54 | 51.12603 | -114.01654 | 3548 ft | 20 kts | 89° |
| 2026-04-25 13:55 | 51.12604 | -114.01417 | 3550 ft | 22 kts | 89° |
| 2026-04-25 13:55 | 51.12607 | -114.01174 | 3552 ft | 20 kts | 85° |
| 2026-04-25 13:55 | 51.12615 | -114.00972 | 3554 ft | 16 kts | 90° |
| 2026-04-25 13:55 | 51.12615 | -114.00816 | 3556 ft | 12 kts | 90° |
| 2026-04-25 13:56 | 51.12615 | -114.00671 | 3557 ft | 18 kts | 89° |
| 2026-04-25 13:56 | 51.12616 | -114.00410 | 3559 ft | 27 kts | 90° |
| 2026-04-25 13:56 | 51.12616 | -114.00131 | 3560 ft | 23 kts | 89° |
| 2026-04-25 13:56 | 51.12616 | -113.99906 | 3559 ft | 18 kts | 91° |
| 2026-04-25 13:57 | 51.12615 | -113.99688 | 3559 ft | 21 kts | 90° |
| 2026-04-25 13:57 | 51.12615 | -113.99538 | 3558 ft | 19 kts | 91° |
| 2026-04-25 13:57 | 51.12514 | -113.99443 | 3557 ft | 16 kts | 180° |
| 2026-04-25 13:57 | 51.12384 | -113.99442 | 3556 ft | 22 kts | 179° |
| 2026-04-25 13:58 | 51.12213 | -113.99440 | 3555 ft | 25 kts | 180° |
| 2026-04-25 13:58 | 51.12042 | -113.99443 | 3554 ft | 25 kts | 180° |
| 2026-04-25 13:58 | 51.11869 | -113.99445 | 3553 ft | 26 kts | 180° |
| 2026-04-25 13:58 | 51.11682 | -113.99447 | 3552 ft | 27 kts | 180° |
| 2026-04-25 13:59 | 51.11506 | -113.99447 | 3551 ft | 23 kts | 180° |
| 2026-04-25 13:59 | 51.11344 | -113.99448 | 3549 ft | 25 kts | 180° |
| 2026-04-25 13:59 | 51.11191 | -113.99447 | 3549 ft | 19 kts | 180° |
| 2026-04-25 13:59 | 51.11069 | -113.99430 | 3547 ft | 18 kts | 153° |
| 2026-04-25 14:00 | 51.11036 | -113.99203 | 3543 ft | 24 kts | 90° |
| 2026-04-25 14:00 | 51.11096 | -113.99037 | 3543 ft | 15 kts | 2° |
| 2026-04-25 14:00 | 51.11317 | -113.99036 | 3545 ft | 54 kts | 0° |
| 2026-04-25 14:00 | 51.11843 | -113.99036 | 3551 ft | 95 kts | 0° |
| 2026-04-25 14:01 | 51.12632 | -113.99036 | 3557 ft | 130 kts | 0° |
| 2026-04-25 14:01 | 51.13637 | -113.99037 | 3563 ft | 158 kts | 359° |
| 2026-04-25 14:01 | 51.14755 | -113.99053 | 3918 ft | 158 kts | 357° |
| 2026-04-25 14:01 | 51.15840 | -113.99124 | 4410 ft | 155 kts | 355° |
| 2026-04-25 14:02 | 51.16923 | -113.99274 | 4825 ft | 159 kts | 351° |
| 2026-04-25 14:02 | 51.18074 | -113.99456 | 5038 ft | 172 kts | 355° |
| 2026-04-25 14:02 | 51.19302 | -113.99297 | 5275 ft | 187 kts | 18° |
| 2026-04-25 14:02 | 51.20039 | -113.98516 | 5461 ft | 200 kts | 41° |
| 2026-04-25 14:03 | 51.21200 | -113.95949 | 5781 ft | 231 kts | 57° |
| 2026-04-25 14:03 | 51.21657 | -113.93341 | 6041 ft | 258 kts | 79° |
| 2026-04-25 14:03 | 51.21574 | -113.90427 | 6463 ft | 274 kts | 98° |
| 2026-04-25 14:03 | 51.21064 | -113.87436 | 7028 ft | 284 kts | 103° |
| 2026-04-25 14:04 | 51.20462 | -113.84408 | 7624 ft | 289 kts | 103° |
| 2026-04-25 14:04 | 51.19812 | -113.81355 | 8216 ft | 295 kts | 108° |
| 2026-04-25 14:04 | 51.18998 | -113.78334 | 8791 ft | 299 kts | 110° |
| 2026-04-25 14:04 | 51.18131 | -113.75289 | 9349 ft | 303 kts | 110° |
| 2026-04-25 14:05 | 51.17229 | -113.72226 | 9916 ft | 306 kts | 111° |
| 2026-04-25 14:05 | 51.16294 | -113.69120 | 10331 ft | 316 kts | 111° |
| 2026-04-25 14:05 | 51.15313 | -113.65879 | 10570 ft | 332 kts | 111° |
| 2026-04-25 14:05 | 51.14283 | -113.62492 | 10811 ft | 347 kts | 112° |
| 2026-04-25 14:06 | 51.13205 | -113.58977 | 11040 ft | 362 kts | 112° |
| 2026-04-25 14:06 | 51.12081 | -113.55320 | 11270 ft | 374 kts | 112° |
| 2026-04-25 14:06 | 51.10919 | -113.51524 | 11511 ft | 387 kts | 112° |
| 2026-04-25 14:06 | 51.09915 | -113.47527 | 11923 ft | 391 kts | 103° |
| 2026-04-25 14:07 | 51.09319 | -113.43384 | 12411 ft | 388 kts | 92° |
| 2026-04-25 14:07 | 51.09204 | -113.39119 | 12903 ft | 383 kts | 81° |
| 2026-04-25 14:07 | 51.09652 | -113.34968 | 13328 ft | 380 kts | 68° |
| 2026-04-25 14:07 | 51.10632 | -113.31083 | 13884 ft | 378 kts | 57° |
| 2026-04-25 14:08 | 51.11947 | -113.27478 | 14498 ft | 375 kts | 52° |
| 2026-04-25 14:08 | 51.13434 | -113.24073 | 15018 ft | 375 kts | 49° |
| 2026-04-25 14:08 | 51.15021 | -113.20747 | 15476 ft | 379 kts | 47° |
| 2026-04-25 14:08 | 51.16647 | -113.17426 | 15971 ft | 381 kts | 47° |
| 2026-04-25 14:09 | 51.18278 | -113.14070 | 16456 ft | 384 kts | 48° |
| 2026-04-25 14:09 | 51.19904 | -113.10668 | 16914 ft | 387 kts | 49° |
| 2026-04-25 14:09 | 51.21526 | -113.07210 | 17398 ft | 389 kts | 49° |
| 2026-04-25 14:09 | 51.22596 | -113.04901 | 17707 ft | 391 kts | 49° |
| 2026-04-25 14:10 | 51.24743 | -113.00236 | 18321 ft | 395 kts | 50° |
| 2026-04-25 14:10 | 51.26365 | -112.96684 | 18835 ft | 397 kts | 50° |
| 2026-04-25 14:10 | 51.27992 | -112.93113 | 19292 ft | 399 kts | 50° |
| 2026-04-25 14:10 | 51.29648 | -112.89478 | 19739 ft | 400 kts | 50° |
| 2026-04-25 14:11 | 51.31266 | -112.85922 | 20186 ft | 402 kts | 50° |
| 2026-04-25 14:11 | 51.32937 | -112.82252 | 20639 ft | 404 kts | 49° |
| 2026-04-25 14:11 | 51.34593 | -112.78607 | 21058 ft | 406 kts | 49° |
| 2026-04-25 14:11 | 51.36255 | -112.74943 | 21469 ft | 407 kts | 49° |
| 2026-04-25 14:12 | 51.37901 | -112.71314 | 21882 ft | 409 kts | 49° |
| 2026-04-25 14:12 | 51.39573 | -112.67623 | 22277 ft | 410 kts | 49° |
| 2026-04-25 14:12 | 51.41251 | -112.63913 | 22672 ft | 412 kts | 49° |
| 2026-04-25 14:12 | 51.42935 | -112.60186 | 23037 ft | 414 kts | 49° |
| 2026-04-25 14:13 | 51.44627 | -112.56432 | 23405 ft | 415 kts | 49° |
| 2026-04-25 14:13 | 51.46323 | -112.52667 | 23777 ft | 417 kts | 49° |
| 2026-04-25 14:13 | 51.48020 | -112.48892 | 24131 ft | 418 kts | 49° |
| 2026-04-25 14:13 | 51.49722 | -112.45101 | 24456 ft | 420 kts | 49° |
| 2026-04-25 14:14 | 51.51432 | -112.41288 | 24760 ft | 421 kts | 49° |
| 2026-04-25 14:14 | 51.53142 | -112.37469 | 25114 ft | 422 kts | 49° |
| 2026-04-25 14:14 | 51.54856 | -112.33632 | 25423 ft | 423 kts | 49° |
| 2026-04-25 14:14 | 51.56577 | -112.29771 | 25727 ft | 425 kts | 49° |
| 2026-04-25 14:15 | 51.58303 | -112.25896 | 26000 ft | 427 kts | 49° |
| 2026-04-25 14:15 | 51.58865 | -112.24633 | 26096 ft | 427 kts | 49° |
| 2026-04-25 14:15 | 51.61748 | -112.18145 | 26607 ft | 429 kts | 49° |
| 2026-04-25 14:15 | 51.63485 | -112.14228 | 26870 ft | 430 kts | 49° |
| 2026-04-25 14:16 | 51.65227 | -112.10294 | 27104 ft | 432 kts | 49° |
| 2026-04-25 14:16 | 51.66974 | -112.06345 | 27366 ft | 433 kts | 49° |
| 2026-04-25 14:16 | 51.68723 | -112.02383 | 27615 ft | 435 kts | 49° |
| 2026-04-25 14:16 | 51.70477 | -111.98401 | 27864 ft | 436 kts | 49° |
| 2026-04-25 14:17 | 51.72248 | -111.94415 | 28093 ft | 438 kts | 49° |
| 2026-04-25 14:17 | 51.74019 | -111.90403 | 28299 ft | 440 kts | 49° |
| 2026-04-25 14:17 | 51.75788 | -111.86364 | 28486 ft | 441 kts | 50° |
| 2026-04-25 14:17 | 51.77561 | -111.82305 | 28712 ft | 443 kts | 50° |
| 2026-04-25 14:18 | 51.79335 | -111.78235 | 28974 ft | 443 kts | 50° |
| 2026-04-25 14:18 | 51.81085 | -111.74216 | 29277 ft | 441 kts | 50° |
| 2026-04-25 14:18 | 51.82850 | -111.70159 | 29564 ft | 441 kts | 50° |
| 2026-04-25 14:18 | 51.84613 | -111.66103 | 29816 ft | 440 kts | 50° |
| 2026-04-25 14:19 | 51.86374 | -111.62050 | 30083 ft | 440 kts | 50° |
| 2026-04-25 14:19 | 51.88132 | -111.58000 | 30312 ft | 440 kts | 50° |
| 2026-04-25 14:19 | 51.89896 | -111.53933 | 30434 ft | 443 kts | 50° |
| 2026-04-25 14:19 | 51.91668 | -111.49839 | 30631 ft | 444 kts | 50° |
| 2026-04-25 14:20 | 51.93440 | -111.45736 | 30795 ft | 446 kts | 50° |
| 2026-04-25 14:20 | 51.97010 | -111.37457 | 31091 ft | 449 kts | 50° |
| 2026-04-25 14:20 | 51.98802 | -111.33292 | 31256 ft | 450 kts | 51° |
| 2026-04-25 14:21 | 52.00595 | -111.29117 | 31390 ft | 452 kts | 51° |
| 2026-04-25 14:21 | 52.02389 | -111.24927 | 31652 ft | 450 kts | 51° |
| 2026-04-25 14:21 | 52.04169 | -111.20759 | 31973 ft | 448 kts | 51° |
| 2026-04-25 14:21 | 52.05949 | -111.16585 | 32076 ft | 451 kts | 51° |
| 2026-04-25 14:22 | 52.07741 | -111.12388 | 32188 ft | 453 kts | 51° |
| 2026-04-25 14:22 | 52.09535 | -111.08177 | 32345 ft | 453 kts | 52° |
| 2026-04-25 14:22 | 52.11332 | -111.03947 | 32520 ft | 454 kts | 52° |
| 2026-04-25 14:22 | 52.13129 | -110.99711 | 32661 ft | 455 kts | 52° |
| 2026-04-25 14:23 | 52.14930 | -110.95450 | 32761 ft | 457 kts | 52° |
| 2026-04-25 14:23 | 52.16732 | -110.91184 | 32923 ft | 457 kts | 52° |
| 2026-04-25 14:23 | 52.18534 | -110.86917 | 33091 ft | 458 kts | 52° |
| 2026-04-25 14:23 | 52.20338 | -110.82638 | 33223 ft | 459 kts | 52° |
| 2026-04-25 14:24 | 52.22150 | -110.78333 | 33325 ft | 460 kts | 53° |
| 2026-04-25 14:24 | 52.23960 | -110.74025 | 33451 ft | 461 kts | 53° |
| 2026-04-25 14:24 | 52.25751 | -110.69753 | 33583 ft | 462 kts | 53° |
| 2026-04-25 14:24 | 52.27567 | -110.65418 | 33709 ft | 463 kts | 53° |
| 2026-04-25 14:25 | 52.29382 | -110.61077 | 33863 ft | 463 kts | 53° |
| 2026-04-25 14:25 | 52.31196 | -110.56727 | 34007 ft | 463 kts | 53° |
| 2026-04-25 14:25 | 52.33009 | -110.52376 | 34123 ft | 464 kts | 53° |
| 2026-04-25 14:26 | 52.36648 | -110.43615 | 34338 ft | 466 kts | 53° |
| 2026-04-25 14:26 | 52.38470 | -110.39216 | 34468 ft | 466 kts | 53° |
| 2026-04-25 14:26 | 52.40291 | -110.34815 | 34605 ft | 467 kts | 53° |
| 2026-04-25 14:26 | 52.42109 | -110.30414 | 34707 ft | 467 kts | 54° |
| 2026-04-25 14:27 | 52.43929 | -110.25999 | 34822 ft | 467 kts | 54° |
| 2026-04-25 14:27 | 52.45747 | -110.21583 | 34955 ft | 468 kts | 54° |
| 2026-04-25 14:27 | 52.47564 | -110.17159 | 35075 ft | 468 kts | 54° |
| 2026-04-25 14:27 | 52.49383 | -110.12724 | 35183 ft | 468 kts | 54° |
| 2026-04-25 14:28 | 52.51200 | -110.08286 | 35306 ft | 468 kts | 54° |
| 2026-04-25 14:28 | 52.52988 | -110.03911 | 35421 ft | 468 kts | 54° |
| 2026-04-25 14:28 | 52.54804 | -109.99462 | 35532 ft | 469 kts | 54° |
| 2026-04-25 14:29 | 52.58432 | -109.90538 | 35681 ft | 470 kts | 54° |
| 2026-04-25 14:29 | 52.60249 | -109.86062 | 35801 ft | 470 kts | 54° |
| 2026-04-25 14:29 | 52.62062 | -109.81589 | 35924 ft | 470 kts | 55° |
| 2026-04-25 14:30 | 52.65689 | -109.72619 | 36123 ft | 470 kts | 55° |
| 2026-04-25 14:30 | 52.69308 | -109.63628 | 36335 ft | 470 kts | 55° |
| 2026-04-25 14:30 | 52.71117 | -109.59120 | 36400 ft | 471 kts | 55° |
| 2026-04-25 14:31 | 52.74731 | -109.50094 | 36547 ft | 472 kts | 55° |
| 2026-04-25 14:31 | 52.76539 | -109.45571 | 36661 ft | 471 kts | 56° |
| 2026-04-25 14:31 | 52.78339 | -109.41056 | 36806 ft | 470 kts | 56° |
| 2026-04-25 14:32 | 52.80135 | -109.36541 | 36923 ft | 469 kts | 56° |
| 2026-04-25 14:32 | 52.81902 | -109.32093 | 36943 ft | 468 kts | 56° |
| 2026-04-25 14:32 | 52.85455 | -109.23127 | 36934 ft | 464 kts | 56° |
| 2026-04-25 14:33 | 52.88990 | -109.14174 | 36934 ft | 464 kts | 56° |
| 2026-04-25 14:33 | 52.92524 | -109.05195 | 36933 ft | 464 kts | 56° |
| 2026-04-25 14:34 | 52.96043 | -108.96219 | 36935 ft | 464 kts | 56° |
| 2026-04-25 14:34 | 52.99562 | -108.87211 | 36935 ft | 464 kts | 56° |
| 2026-04-25 14:35 | 53.02479 | -108.79718 | 36933 ft | 464 kts | 56° |
| 2026-04-25 14:35 | 53.05984 | -108.70688 | 36936 ft | 465 kts | 57° |
| 2026-04-25 14:36 | 53.09484 | -108.61639 | 36934 ft | 465 kts | 57° |
| 2026-04-25 14:36 | 53.12976 | -108.52566 | 36933 ft | 466 kts | 57° |
| 2026-04-25 14:37 | 53.16468 | -108.43472 | 36935 ft | 466 kts | 57° |
| 2026-04-25 14:37 | 53.19955 | -108.34362 | 36928 ft | 465 kts | 57° |
| 2026-04-25 14:38 | 53.23428 | -108.25253 | 36929 ft | 465 kts | 57° |
| 2026-04-25 14:38 | 53.26869 | -108.16197 | 36930 ft | 465 kts | 57° |
| 2026-04-25 14:39 | 53.30346 | -108.07007 | 36909 ft | 465 kts | 57° |
| 2026-04-25 14:39 | 53.33807 | -107.97828 | 36928 ft | 464 kts | 58° |
| 2026-04-25 14:40 | 53.37253 | -107.88658 | 36912 ft | 466 kts | 58° |
| 2026-04-25 14:40 | 53.40675 | -107.79515 | 36930 ft | 466 kts | 58° |
| 2026-04-25 14:41 | 53.44116 | -107.70289 | 36909 ft | 466 kts | 58° |
| 2026-04-25 14:41 | 53.47551 | -107.61045 | 36927 ft | 466 kts | 58° |
| 2026-04-25 14:42 | 53.50396 | -107.53358 | 36929 ft | 466 kts | 58° |
| 2026-04-25 14:42 | 53.54416 | -107.42458 | 36929 ft | 466 kts | 58° |
| 2026-04-25 14:43 | 53.57833 | -107.33153 | 36911 ft | 467 kts | 58° |
| 2026-04-25 14:43 | 53.61244 | -107.23840 | 36929 ft | 467 kts | 59° |
| 2026-04-25 14:44 | 53.64641 | -107.14539 | 36929 ft | 467 kts | 59° |
| 2026-04-25 14:44 | 53.68035 | -107.05198 | 36907 ft | 467 kts | 59° |
| 2026-04-25 14:45 | 53.71423 | -106.95833 | 36899 ft | 467 kts | 59° |
| 2026-04-25 14:45 | 53.74801 | -106.86465 | 36904 ft | 467 kts | 59° |
| 2026-04-25 14:46 | 53.78176 | -106.77072 | 36900 ft | 467 kts | 59° |
| 2026-04-25 14:46 | 53.81590 | -106.67532 | 36889 ft | 467 kts | 60° |
| 2026-04-25 14:47 | 53.84379 | -106.59703 | 36882 ft | 467 kts | 60° |
| 2026-04-25 14:47 | 53.88296 | -106.48684 | 36876 ft | 467 kts | 60° |
| 2026-04-25 14:48 | 53.91614 | -106.39308 | 36874 ft | 467 kts | 60° |
| 2026-04-25 14:48 | 53.94948 | -106.29853 | 36870 ft | 466 kts | 60° |
| 2026-04-25 14:49 | 53.98270 | -106.20396 | 36870 ft | 466 kts | 60° |
| 2026-04-25 14:49 | 54.01583 | -106.10924 | 36870 ft | 466 kts | 61° |
| 2026-04-25 14:50 | 54.04858 | -106.01530 | 36871 ft | 462 kts | 61° |
| 2026-04-25 14:50 | 54.08136 | -105.92078 | 36870 ft | 466 kts | 61° |
| 2026-04-25 14:51 | 54.11437 | -105.82533 | 36881 ft | 469 kts | 61° |
| 2026-04-25 14:51 | 54.14758 | -105.72898 | 36881 ft | 473 kts | 61° |
| 2026-04-25 14:52 | 54.18093 | -105.63171 | 36878 ft | 477 kts | 61° |
| 2026-04-25 14:52 | 54.20883 | -105.55008 | 36869 ft | 480 kts | 61° |
| 2026-04-25 14:53 | 54.24805 | -105.43494 | 36869 ft | 482 kts | 62° |
| 2026-04-25 14:53 | 54.28166 | -105.33587 | 36869 ft | 481 kts | 62° |
| 2026-04-25 14:54 | 54.31520 | -105.23653 | 36869 ft | 481 kts | 62° |
| 2026-04-25 14:54 | 54.34859 | -105.13723 | 36869 ft | 480 kts | 62° |
| 2026-04-25 14:55 | 54.38181 | -105.03795 | 36865 ft | 476 kts | 62° |
| 2026-04-25 14:55 | 54.41416 | -104.94103 | 36867 ft | 463 kts | 62° |
| 2026-04-25 14:56 | 54.44607 | -104.84504 | 36870 ft | 463 kts | 62° |
| 2026-04-25 14:56 | 54.47790 | -104.74878 | 36878 ft | 463 kts | 63° |
| 2026-04-25 14:57 | 54.50942 | -104.65310 | 36876 ft | 463 kts | 63° |
| 2026-04-25 14:57 | 54.54109 | -104.55660 | 36879 ft | 463 kts | 63° |
| 2026-04-25 14:58 | 54.57269 | -104.45992 | 36880 ft | 463 kts | 63° |
| 2026-04-25 14:58 | 54.60430 | -104.36299 | 36878 ft | 463 kts | 63° |
| 2026-04-25 14:59 | 54.63580 | -104.26590 | 36878 ft | 464 kts | 63° |
| 2026-04-25 14:59 | 54.66721 | -104.16862 | 36878 ft | 464 kts | 63° |
| 2026-04-25 15:00 | 54.69857 | -104.07121 | 36875 ft | 464 kts | 63° |
| 2026-04-25 15:00 | 54.72987 | -103.97353 | 36888 ft | 463 kts | 63° |
| 2026-04-25 15:01 | 54.76102 | -103.87590 | 36901 ft | 464 kts | 64° |
| 2026-04-25 15:01 | 54.79566 | -103.78119 | 36894 ft | 466 kts | 58° |
| 2026-04-25 15:02 | 54.83213 | -103.68923 | 36896 ft | 466 kts | 58° |
| 2026-04-25 15:02 | 54.86910 | -103.59690 | 36895 ft | 465 kts | 58° |
| 2026-04-25 15:03 | 54.90591 | -103.50468 | 36894 ft | 464 kts | 58° |
| 2026-04-25 15:03 | 54.94261 | -103.41217 | 36891 ft | 464 kts | 58° |
| 2026-04-25 15:04 | 54.97912 | -103.31967 | 36904 ft | 464 kts | 58° |
| 2026-04-25 15:04 | 55.01554 | -103.22706 | 36897 ft | 463 kts | 59° |
| 2026-04-25 15:05 | 55.05187 | -103.13436 | 36897 ft | 463 kts | 59° |
| 2026-04-25 15:06 | 55.10624 | -102.99489 | 36898 ft | 463 kts | 59° |
| 2026-04-25 15:06 | 55.14238 | -102.90172 | 36895 ft | 463 kts | 59° |
| 2026-04-25 15:07 | 55.17823 | -102.80901 | 36900 ft | 462 kts | 59° |
| 2026-04-25 15:07 | 55.21422 | -102.71563 | 36911 ft | 462 kts | 59° |
| 2026-04-25 15:08 | 55.25013 | -102.62209 | 36902 ft | 462 kts | 59° |
| 2026-04-25 15:08 | 55.28592 | -102.52851 | 36910 ft | 462 kts | 60° |
| 2026-04-25 15:09 | 55.32161 | -102.43474 | 36908 ft | 462 kts | 60° |
| 2026-04-25 15:09 | 55.36894 | -102.30989 | 36913 ft | 461 kts | 60° |
| 2026-04-25 15:10 | 55.40439 | -102.21599 | 36923 ft | 460 kts | 60° |
| 2026-04-25 15:11 | 55.45741 | -102.07491 | 36915 ft | 460 kts | 60° |
| 2026-04-25 15:11 | 55.49259 | -101.98087 | 36909 ft | 459 kts | 61° |
| 2026-04-25 15:12 | 55.54519 | -101.83947 | 36936 ft | 460 kts | 62° |
| 2026-04-25 15:12 | 55.57440 | -101.76058 | 36943 ft | 463 kts | 62° |
| 2026-04-25 15:13 | 55.63316 | -101.60117 | 36951 ft | 464 kts | 62° |
| 2026-04-25 15:14 | 55.66831 | -101.50535 | 36953 ft | 464 kts | 62° |
| 2026-04-25 15:14 | 55.70321 | -101.40980 | 36956 ft | 464 kts | 62° |
| 2026-04-25 15:15 | 55.73829 | -101.31335 | 36961 ft | 464 kts | 62° |
| 2026-04-25 15:15 | 55.77328 | -101.21681 | 36968 ft | 465 kts | 62° |
| 2026-04-25 15:16 | 55.80825 | -101.11998 | 36971 ft | 465 kts | 62° |
| 2026-04-25 15:16 | 55.86053 | -100.97445 | 37015 ft | 466 kts | 63° |
| 2026-04-25 15:17 | 55.91274 | -100.82817 | 37020 ft | 466 kts | 63° |
| 2026-04-25 15:18 | 55.94749 | -100.73029 | 37026 ft | 467 kts | 63° |
| 2026-04-25 15:18 | 55.99948 | -100.58322 | 37028 ft | 467 kts | 63° |
| 2026-04-25 15:19 | 56.02816 | -100.50170 | 37033 ft | 465 kts | 64° |
| 2026-04-25 15:19 | 56.06802 | -100.38797 | 37032 ft | 463 kts | 64° |
| 2026-04-25 15:20 | 56.10221 | -100.28990 | 37041 ft | 464 kts | 64° |
| 2026-04-25 15:20 | 56.13637 | -100.19160 | 37041 ft | 465 kts | 64° |
| 2026-04-25 15:21 | 56.17050 | -100.09301 | 37048 ft | 465 kts | 64° |
| 2026-04-25 15:21 | 56.20459 | -99.99411 | 37049 ft | 465 kts | 64° |
| 2026-04-25 15:22 | 56.23842 | -99.89551 | 37044 ft | 465 kts | 64° |
| 2026-04-25 15:22 | 56.27234 | -99.79629 | 37051 ft | 464 kts | 64° |
| 2026-04-25 15:23 | 56.30607 | -99.69721 | 37054 ft | 464 kts | 65° |
| 2026-04-25 15:23 | 56.33964 | -99.59826 | 37054 ft | 462 kts | 65° |
| 2026-04-25 15:24 | 56.37305 | -99.49936 | 37056 ft | 461 kts | 65° |
| 2026-04-25 15:24 | 56.40068 | -99.41719 | 37055 ft | 460 kts | 65° |
| 2026-04-25 15:25 | 56.43921 | -99.30209 | 37057 ft | 459 kts | 65° |
| 2026-04-25 15:25 | 56.47209 | -99.20343 | 37063 ft | 457 kts | 66° |
| 2026-04-25 15:26 | 56.50486 | -99.10482 | 37062 ft | 456 kts | 66° |
| 2026-04-25 15:26 | 56.53740 | -99.00640 | 37061 ft | 455 kts | 66° |
| 2026-04-25 15:27 | 56.56963 | -98.90864 | 37062 ft | 453 kts | 66° |
| 2026-04-25 15:28 | 56.61792 | -98.76135 | 37064 ft | 452 kts | 66° |
| 2026-04-25 15:28 | 56.64996 | -98.66292 | 37063 ft | 452 kts | 66° |
| 2026-04-25 15:29 | 56.68190 | -98.56460 | 37063 ft | 451 kts | 66° |
| 2026-04-25 15:29 | 56.71373 | -98.46619 | 37075 ft | 450 kts | 67° |
| 2026-04-25 15:30 | 56.74540 | -98.36790 | 37085 ft | 450 kts | 67° |
| 2026-04-25 15:30 | 56.77695 | -98.26938 | 37100 ft | 450 kts | 67° |
| 2026-04-25 15:31 | 56.80824 | -98.17145 | 37102 ft | 450 kts | 67° |
| 2026-04-25 15:31 | 56.83967 | -98.07269 | 37099 ft | 448 kts | 67° |
| 2026-04-25 15:32 | 56.87090 | -97.97414 | 37113 ft | 447 kts | 67° |
| 2026-04-25 15:32 | 56.90191 | -97.87571 | 37116 ft | 446 kts | 68° |
| 2026-04-25 15:33 | 56.94823 | -97.72813 | 37136 ft | 445 kts | 68° |
| 2026-04-25 15:33 | 56.97892 | -97.62986 | 37146 ft | 444 kts | 68° |
| 2026-04-25 15:34 | 57.00957 | -97.53134 | 37146 ft | 444 kts | 68° |
| 2026-04-25 15:34 | 57.03493 | -97.44943 | 37152 ft | 443 kts | 68° |
| 2026-04-25 15:35 | 57.08537 | -97.28570 | 37153 ft | 442 kts | 68° |
| 2026-04-25 15:36 | 57.13055 | -97.13806 | 37166 ft | 441 kts | 68° |
| 2026-04-25 15:36 | 57.16062 | -97.03923 | 37166 ft | 441 kts | 68° |
| 2026-04-25 15:37 | 57.19058 | -96.94048 | 37172 ft | 441 kts | 68° |
| 2026-04-25 15:37 | 57.22031 | -96.84205 | 37174 ft | 441 kts | 68° |
| 2026-04-25 15:38 | 57.25005 | -96.74314 | 37177 ft | 441 kts | 68° |
| 2026-04-25 15:38 | 57.27979 | -96.64388 | 37177 ft | 441 kts | 69° |
| 2026-04-25 15:39 | 57.30939 | -96.54451 | 37185 ft | 441 kts | 68° |
| 2026-04-25 15:39 | 57.33882 | -96.44530 | 37177 ft | 442 kts | 69° |
| 2026-04-25 15:40 | 57.35859 | -96.37843 | 37194 ft | 442 kts | 69° |
| 2026-04-25 15:40 | 57.39781 | -96.24530 | 37193 ft | 441 kts | 69° |
| 2026-04-25 15:41 | 57.42713 | -96.14521 | 37185 ft | 441 kts | 69° |
| 2026-04-25 15:41 | 57.45637 | -96.04500 | 37200 ft | 441 kts | 69° |
| 2026-04-25 15:42 | 57.48528 | -95.94535 | 37202 ft | 441 kts | 69° |
| 2026-04-25 15:42 | 57.51432 | -95.84494 | 37202 ft | 441 kts | 69° |
| 2026-04-25 15:43 | 57.54328 | -95.74438 | 37209 ft | 441 kts | 69° |
| 2026-04-25 15:43 | 57.57223 | -95.64353 | 37210 ft | 441 kts | 69° |
| 2026-04-25 15:44 | 57.60105 | -95.54264 | 37211 ft | 440 kts | 69° |
| 2026-04-25 15:44 | 57.62958 | -95.44227 | 37219 ft | 441 kts | 69° |
| 2026-04-25 15:45 | 57.65822 | -95.34111 | 37220 ft | 440 kts | 69° |
| 2026-04-25 15:45 | 57.67732 | -95.27336 | 37220 ft | 440 kts | 69° |
| 2026-04-25 15:46 | 57.71522 | -95.13838 | 37231 ft | 440 kts | 69° |
| 2026-04-25 15:46 | 57.74359 | -95.03683 | 37230 ft | 440 kts | 69° |
| 2026-04-25 15:47 | 57.77187 | -94.93516 | 37242 ft | 439 kts | 69° |
| 2026-04-25 15:47 | 57.79985 | -94.83405 | 37245 ft | 439 kts | 69° |
| 2026-04-25 15:48 | 57.82789 | -94.73229 | 37249 ft | 439 kts | 69° |
| 2026-04-25 15:48 | 57.85588 | -94.63035 | 37253 ft | 439 kts | 69° |
| 2026-04-25 15:49 | 57.88376 | -94.52832 | 37266 ft | 438 kts | 70° |
| 2026-04-25 15:49 | 57.91149 | -94.42636 | 37266 ft | 437 kts | 70° |
| 2026-04-25 15:50 | 57.93889 | -94.32509 | 37275 ft | 437 kts | 70° |
| 2026-04-25 15:50 | 57.96640 | -94.22292 | 37275 ft | 436 kts | 70° |
| 2026-04-25 15:51 | 57.98473 | -94.15468 | 37275 ft | 436 kts | 70° |
| 2026-04-25 15:51 | 58.02104 | -94.01873 | 37289 ft | 436 kts | 70° |
| 2026-04-25 15:52 | 58.04821 | -93.91651 | 37294 ft | 435 kts | 70° |
| 2026-04-25 15:52 | 58.07514 | -93.81482 | 37295 ft | 435 kts | 70° |
| 2026-04-25 15:53 | 58.10213 | -93.71237 | 37292 ft | 435 kts | 70° |
| 2026-04-25 15:53 | 58.12906 | -93.60979 | 37302 ft | 435 kts | 70° |
| 2026-04-25 15:54 | 58.15592 | -93.50678 | 37304 ft | 436 kts | 70° |
| 2026-04-25 15:54 | 58.18272 | -93.40357 | 37301 ft | 436 kts | 70° |
| 2026-04-25 15:55 | 58.20943 | -93.30038 | 37301 ft | 436 kts | 70° |
| 2026-04-25 15:55 | 58.23158 | -93.21441 | 37301 ft | 436 kts | 70° |
| 2026-04-25 15:56 | 58.26244 | -93.09406 | 37303 ft | 436 kts | 70° |
| 2026-04-25 15:56 | 58.28462 | -93.00711 | 37304 ft | 435 kts | 70° |
| 2026-04-25 15:57 | 58.31081 | -92.90409 | 37302 ft | 435 kts | 70° |
| 2026-04-25 15:57 | 58.33709 | -92.80024 | 37304 ft | 435 kts | 70° |
| 2026-04-25 15:58 | 58.36328 | -92.69622 | 37303 ft | 435 kts | 70° |
| 2026-04-25 15:58 | 58.38938 | -92.59205 | 37303 ft | 435 kts | 70° |
| 2026-04-25 15:59 | 58.41535 | -92.48787 | 37304 ft | 435 kts | 70° |
| 2026-04-25 15:59 | 58.44125 | -92.38354 | 37302 ft | 435 kts | 70° |
| 2026-04-25 16:00 | 58.46270 | -92.29672 | 37302 ft | 435 kts | 71° |
| 2026-04-25 16:00 | 58.49280 | -92.17435 | 37304 ft | 435 kts | 71° |
| 2026-04-25 16:01 | 58.51843 | -92.06958 | 37303 ft | 434 kts | 71° |
| 2026-04-25 16:01 | 58.54379 | -91.96541 | 37303 ft | 434 kts | 71° |
| 2026-04-25 16:02 | 58.56924 | -91.86041 | 37303 ft | 434 kts | 71° |
| 2026-04-25 16:02 | 58.59462 | -91.75522 | 37302 ft | 435 kts | 71° |
| 2026-04-25 16:03 | 58.61996 | -91.64966 | 37303 ft | 434 kts | 71° |
| 2026-04-25 16:03 | 58.64518 | -91.54403 | 37304 ft | 435 kts | 71° |
| 2026-04-25 16:04 | 58.67033 | -91.43821 | 37304 ft | 435 kts | 71° |
| 2026-04-25 16:04 | 58.69522 | -91.33296 | 37303 ft | 435 kts | 71° |
| 2026-04-25 16:05 | 58.72022 | -91.22678 | 37301 ft | 435 kts | 71° |
| 2026-04-25 16:06 | 58.75750 | -91.06747 | 37301 ft | 435 kts | 71° |
| 2026-04-25 16:06 | 58.78222 | -90.96108 | 37311 ft | 435 kts | 71° |
| 2026-04-25 16:07 | 58.80687 | -90.85446 | 37338 ft | 435 kts | 71° |
| 2026-04-25 16:07 | 58.83142 | -90.74781 | 37366 ft | 435 kts | 71° |
| 2026-04-25 16:08 | 58.85573 | -90.64158 | 37350 ft | 435 kts | 71° |
| 2026-04-25 16:08 | 58.88012 | -90.53461 | 37350 ft | 435 kts | 71° |
| 2026-04-25 16:09 | 58.90440 | -90.42752 | 37353 ft | 434 kts | 71° |
| 2026-04-25 16:09 | 58.92859 | -90.32037 | 37364 ft | 435 kts | 71° |
| 2026-04-25 16:10 | 58.95275 | -90.21279 | 37365 ft | 435 kts | 71° |
| 2026-04-25 16:10 | 58.97679 | -90.10518 | 37369 ft | 435 kts | 71° |
| 2026-04-25 16:11 | 59.00073 | -89.99741 | 37361 ft | 435 kts | 71° |
| 2026-04-25 16:11 | 59.02635 | -89.89053 | 37369 ft | 437 kts | 68° |
| 2026-04-25 16:12 | 59.05329 | -89.78565 | 37375 ft | 437 kts | 68° |
| 2026-04-25 16:12 | 59.08021 | -89.67973 | 37369 ft | 436 kts | 69° |
| 2026-04-25 16:13 | 59.10669 | -89.57347 | 37377 ft | 436 kts | 69° |
| 2026-04-25 16:13 | 59.13296 | -89.46685 | 37383 ft | 436 kts | 69° |
| 2026-04-25 16:14 | 59.15898 | -89.36081 | 37388 ft | 436 kts | 69° |
| 2026-04-25 16:14 | 59.18506 | -89.25402 | 37385 ft | 436 kts | 69° |
| 2026-04-25 16:15 | 59.21107 | -89.14710 | 37393 ft | 436 kts | 69° |
| 2026-04-25 16:15 | 59.23700 | -89.03990 | 37395 ft | 436 kts | 69° |
| 2026-04-25 16:16 | 59.26283 | -88.93258 | 37393 ft | 436 kts | 69° |
| 2026-04-25 16:16 | 59.28862 | -88.82498 | 37407 ft | 436 kts | 69° |
| 2026-04-25 16:17 | 59.31428 | -88.71742 | 37400 ft | 436 kts | 69° |
| 2026-04-25 16:17 | 59.33968 | -88.61033 | 37405 ft | 437 kts | 69° |
| 2026-04-25 16:18 | 59.36517 | -88.50223 | 37412 ft | 437 kts | 69° |
| 2026-04-25 16:18 | 59.39060 | -88.39393 | 37413 ft | 437 kts | 69° |
| 2026-04-25 16:19 | 59.41598 | -88.28531 | 37413 ft | 438 kts | 69° |
| 2026-04-25 16:19 | 59.44126 | -88.17645 | 37426 ft | 438 kts | 69° |
| 2026-04-25 16:20 | 59.47912 | -88.01259 | 37429 ft | 438 kts | 69° |
| 2026-04-25 16:21 | 59.51664 | -87.84898 | 37433 ft | 438 kts | 69° |
| 2026-04-25 16:21 | 59.54162 | -87.73931 | 37439 ft | 439 kts | 69° |
| 2026-04-25 16:22 | 59.56650 | -87.62952 | 37434 ft | 439 kts | 69° |
| 2026-04-25 16:22 | 59.59131 | -87.51950 | 37428 ft | 438 kts | 69° |
| 2026-04-25 16:23 | 59.61598 | -87.40947 | 37431 ft | 438 kts | 69° |
| 2026-04-25 16:23 | 59.64055 | -87.29939 | 37439 ft | 437 kts | 69° |
| 2026-04-25 16:24 | 59.66482 | -87.18993 | 37438 ft | 437 kts | 69° |
| 2026-04-25 16:24 | 59.68916 | -87.07962 | 37438 ft | 437 kts | 69° |
| 2026-04-25 16:25 | 59.71342 | -86.96915 | 37445 ft | 437 kts | 69° |
| 2026-04-25 16:25 | 59.73760 | -86.85853 | 37451 ft | 437 kts | 69° |
| 2026-04-25 16:26 | 59.76168 | -86.74774 | 37449 ft | 438 kts | 69° |
| 2026-04-25 16:26 | 59.78553 | -86.63726 | 37449 ft | 438 kts | 69° |
| 2026-04-25 16:27 | 59.80952 | -86.52573 | 37442 ft | 439 kts | 69° |
| 2026-04-25 16:27 | 59.83348 | -86.41377 | 37455 ft | 440 kts | 69° |
| 2026-04-25 16:28 | 59.85738 | -86.30141 | 37460 ft | 441 kts | 69° |
| 2026-04-25 16:28 | 59.88103 | -86.18962 | 37461 ft | 442 kts | 69° |
| 2026-04-25 16:29 | 59.90480 | -86.07659 | 37461 ft | 442 kts | 69° |
| 2026-04-25 16:29 | 59.92850 | -85.96334 | 37468 ft | 442 kts | 69° |
| 2026-04-25 16:30 | 59.95212 | -85.84983 | 37469 ft | 442 kts | 69° |
| 2026-04-25 16:30 | 59.97548 | -85.73694 | 37469 ft | 442 kts | 70° |
| 2026-04-25 16:31 | 59.99886 | -85.62334 | 37472 ft | 441 kts | 70° |
| 2026-04-25 16:31 | 60.02214 | -85.50967 | 37479 ft | 443 kts | 69° |
| 2026-04-25 16:32 | 60.04542 | -85.39518 | 37474 ft | 444 kts | 69° |
| 2026-04-25 16:32 | 60.06865 | -85.28025 | 37511 ft | 445 kts | 69° |
| 2026-04-25 16:33 | 60.09169 | -85.16570 | 37514 ft | 446 kts | 69° |
| 2026-04-25 16:33 | 60.11483 | -85.05006 | 37514 ft | 447 kts | 69° |
| 2026-04-25 16:34 | 60.13785 | -84.93427 | 37514 ft | 447 kts | 69° |
| 2026-04-25 16:34 | 60.16081 | -84.81819 | 37510 ft | 447 kts | 69° |
| 2026-04-25 16:35 | 60.18354 | -84.70266 | 37521 ft | 447 kts | 69° |
| 2026-04-25 16:35 | 60.20625 | -84.58639 | 37522 ft | 446 kts | 70° |
| 2026-04-25 16:36 | 60.22887 | -84.46996 | 37522 ft | 446 kts | 70° |
| 2026-04-25 16:36 | 60.25133 | -84.35381 | 37523 ft | 445 kts | 70° |
| 2026-04-25 16:37 | 60.27361 | -84.23768 | 37540 ft | 444 kts | 70° |
| 2026-04-25 16:37 | 60.29577 | -84.12152 | 37541 ft | 444 kts | 70° |
| 2026-04-25 16:38 | 60.31784 | -84.00516 | 37539 ft | 443 kts | 70° |
| 2026-04-25 16:38 | 60.33975 | -83.88900 | 37540 ft | 443 kts | 70° |
| 2026-04-25 16:39 | 60.36148 | -83.77310 | 37540 ft | 444 kts | 70° |
| 2026-04-25 16:39 | 60.38324 | -83.65635 | 37540 ft | 444 kts | 70° |
| 2026-04-25 16:40 | 60.40494 | -83.53924 | 37555 ft | 445 kts | 70° |
| 2026-04-25 16:40 | 60.42658 | -83.42173 | 37560 ft | 447 kts | 70° |
| 2026-04-25 16:41 | 60.44818 | -83.30362 | 37558 ft | 448 kts | 70° |
| 2026-04-25 16:41 | 60.48054 | -83.12557 | 37559 ft | 449 kts | 70° |
| 2026-04-25 16:42 | 60.50188 | -83.00712 | 37558 ft | 450 kts | 70° |
| 2026-04-25 16:42 | 60.52327 | -82.88769 | 37559 ft | 450 kts | 70° |
| 2026-04-25 16:43 | 60.54108 | -82.78757 | 37560 ft | 450 kts | 70° |
| 2026-04-25 16:43 | 60.56214 | -82.66854 | 37558 ft | 450 kts | 70° |
| 2026-04-25 16:44 | 60.58321 | -82.54873 | 37562 ft | 450 kts | 70° |
| 2026-04-25 16:44 | 60.60420 | -82.42861 | 37568 ft | 450 kts | 70° |
| 2026-04-25 16:45 | 60.62507 | -82.30846 | 37567 ft | 450 kts | 70° |
| 2026-04-25 16:45 | 60.64582 | -82.18829 | 37569 ft | 450 kts | 70° |
| 2026-04-25 16:46 | 60.66645 | -82.06786 | 37568 ft | 450 kts | 71° |
| 2026-04-25 16:46 | 60.68352 | -81.96755 | 37568 ft | 450 kts | 71° |
| 2026-04-25 16:47 | 60.70728 | -81.82712 | 37568 ft | 450 kts | 71° |
| 2026-04-25 16:47 | 60.72765 | -81.70581 | 37571 ft | 451 kts | 71° |
| 2026-04-25 16:48 | 60.74790 | -81.58447 | 37578 ft | 451 kts | 71° |
| 2026-04-25 16:48 | 60.76807 | -81.46283 | 37577 ft | 452 kts | 71° |
| 2026-04-25 16:49 | 60.78817 | -81.34077 | 37577 ft | 453 kts | 71° |
| 2026-04-25 16:49 | 60.80809 | -81.21910 | 37578 ft | 453 kts | 71° |
| 2026-04-25 16:50 | 60.82799 | -81.09652 | 37578 ft | 453 kts | 71° |
| 2026-04-25 16:50 | 60.84781 | -80.97374 | 37576 ft | 454 kts | 71° |
| 2026-04-25 16:51 | 60.86753 | -80.85066 | 37615 ft | 454 kts | 71° |
| 2026-04-25 16:51 | 60.88384 | -80.74820 | 37612 ft | 454 kts | 71° |
| 2026-04-25 16:52 | 60.90667 | -80.60381 | 37613 ft | 455 kts | 71° |
| 2026-04-25 16:52 | 60.92607 | -80.48013 | 37619 ft | 454 kts | 71° |
| 2026-04-25 16:53 | 60.95499 | -80.29432 | 37610 ft | 455 kts | 71° |
| 2026-04-25 16:54 | 60.97400 | -80.17078 | 37615 ft | 455 kts | 71° |
| 2026-04-25 16:54 | 60.99292 | -80.04625 | 37605 ft | 456 kts | 73° |
| 2026-04-25 16:55 | 61.00315 | -79.91721 | 37612 ft | 457 kts | 83° |
| 2026-04-25 16:55 | 61.00859 | -79.78646 | 37612 ft | 457 kts | 84° |
| 2026-04-25 16:56 | 61.01312 | -79.65565 | 37614 ft | 457 kts | 85° |
| 2026-04-25 16:56 | 61.01752 | -79.52463 | 37616 ft | 457 kts | 84° |
| 2026-04-25 16:57 | 61.02193 | -79.39373 | 37612 ft | 458 kts | 84° |
| 2026-04-25 16:57 | 61.02627 | -79.26365 | 37613 ft | 457 kts | 85° |
| 2026-04-25 16:58 | 61.03051 | -79.13275 | 37603 ft | 457 kts | 85° |
| 2026-04-25 16:58 | 61.03461 | -79.00168 | 37603 ft | 457 kts | 85° |
| 2026-04-25 16:59 | 61.03861 | -78.87072 | 37606 ft | 457 kts | 85° |
| 2026-04-25 16:59 | 61.04245 | -78.73975 | 37607 ft | 457 kts | 85° |
| 2026-04-25 17:00 | 61.04612 | -78.60969 | 37603 ft | 457 kts | 85° |
| 2026-04-25 17:00 | 61.04972 | -78.47848 | 37602 ft | 457 kts | 85° |
| 2026-04-25 17:01 | 61.05321 | -78.34739 | 37607 ft | 457 kts | 85° |
| 2026-04-25 17:01 | 61.05655 | -78.21630 | 37600 ft | 457 kts | 85° |
| 2026-04-25 17:02 | 61.05974 | -78.08602 | 37605 ft | 457 kts | 85° |
| 2026-04-25 17:02 | 61.06283 | -77.95481 | 37601 ft | 457 kts | 85° |
| 2026-04-25 17:03 | 61.06580 | -77.82346 | 37607 ft | 457 kts | 85° |
| 2026-04-25 17:03 | 61.06864 | -77.69234 | 37603 ft | 457 kts | 85° |
| 2026-04-25 17:04 | 61.07134 | -77.56113 | 37609 ft | 457 kts | 85° |
| 2026-04-25 17:04 | 61.07392 | -77.42989 | 37601 ft | 457 kts | 85° |
| 2026-04-25 17:05 | 61.07635 | -77.29889 | 37614 ft | 456 kts | 85° |
| 2026-04-25 17:05 | 61.07979 | -77.10317 | 37613 ft | 456 kts | 85° |
| 2026-04-25 17:06 | 61.08192 | -76.97212 | 37601 ft | 457 kts | 85° |
| 2026-04-25 17:06 | 61.08393 | -76.84076 | 37603 ft | 457 kts | 85° |
| 2026-04-25 17:07 | 61.08581 | -76.70948 | 37601 ft | 457 kts | 85° |
| 2026-04-25 17:07 | 61.08755 | -76.57835 | 37600 ft | 457 kts | 85° |
| 2026-04-25 17:08 | 61.08917 | -76.44703 | 37604 ft | 457 kts | 86° |
| 2026-04-25 17:08 | 61.09066 | -76.31562 | 37610 ft | 457 kts | 86° |
| 2026-04-25 17:09 | 61.09204 | -76.18412 | 37601 ft | 458 kts | 86° |
| 2026-04-25 17:09 | 61.09330 | -76.05244 | 37602 ft | 458 kts | 86° |
| 2026-04-25 17:10 | 61.09441 | -75.92075 | 37602 ft | 458 kts | 86° |
| 2026-04-25 17:10 | 61.09541 | -75.78987 | 37607 ft | 457 kts | 86° |
| 2026-04-25 17:11 | 61.09630 | -75.65820 | 37605 ft | 457 kts | 86° |
| 2026-04-25 17:11 | 61.09703 | -75.52664 | 37599 ft | 457 kts | 86° |
| 2026-04-25 17:12 | 61.09761 | -75.39512 | 37597 ft | 457 kts | 86° |
| 2026-04-25 17:12 | 61.09809 | -75.26462 | 37594 ft | 457 kts | 86° |
| 2026-04-25 17:13 | 61.09834 | -75.17658 | 37595 ft | 457 kts | 86° |
| 2026-04-25 17:13 | 61.09866 | -75.00180 | 37597 ft | 456 kts | 86° |
| 2026-04-25 17:14 | 61.09876 | -74.87044 | 37598 ft | 456 kts | 86° |
| 2026-04-25 17:14 | 61.09872 | -74.73918 | 37598 ft | 457 kts | 86° |
| 2026-04-25 17:15 | 61.09856 | -74.60790 | 37596 ft | 456 kts | 86° |
| 2026-04-25 17:15 | 61.09828 | -74.47756 | 37597 ft | 456 kts | 86° |
| 2026-04-25 17:16 | 61.09786 | -74.34628 | 37597 ft | 456 kts | 86° |
| 2026-04-25 17:16 | 61.09733 | -74.21513 | 37594 ft | 457 kts | 86° |
| 2026-04-25 17:17 | 61.09665 | -74.08360 | 37594 ft | 457 kts | 86° |
| 2026-04-25 17:17 | 61.09586 | -73.95211 | 37596 ft | 456 kts | 86° |
| 2026-04-25 17:18 | 61.09494 | -73.82081 | 37600 ft | 456 kts | 86° |
| 2026-04-25 17:18 | 61.09389 | -73.69024 | 37595 ft | 456 kts | 86° |
| 2026-04-25 17:19 | 61.09271 | -73.55897 | 37597 ft | 456 kts | 87° |
| 2026-04-25 17:19 | 61.09142 | -73.42785 | 37595 ft | 456 kts | 87° |
| 2026-04-25 17:20 | 61.09000 | -73.29675 | 37591 ft | 456 kts | 87° |
| 2026-04-25 17:20 | 61.08842 | -73.16561 | 37589 ft | 456 kts | 87° |
| 2026-04-25 17:21 | 61.08674 | -73.03463 | 37593 ft | 456 kts | 87° |
| 2026-04-25 17:21 | 61.08494 | -72.90355 | 37594 ft | 456 kts | 87° |
| 2026-04-25 17:22 | 61.08544 | -72.81693 | 37589 ft | 452 kts | 80° |
| 2026-04-25 17:22 | 61.10241 | -72.64937 | 37599 ft | 446 kts | 71° |
| 2026-04-25 17:23 | 61.11839 | -72.52556 | 37594 ft | 446 kts | 70° |
| 2026-04-25 17:23 | 61.13455 | -72.40126 | 37597 ft | 446 kts | 70° |
| 2026-04-25 17:24 | 61.15039 | -72.27678 | 37595 ft | 447 kts | 71° |
| 2026-04-25 17:24 | 61.16602 | -72.15180 | 37605 ft | 448 kts | 71° |
| 2026-04-25 17:25 | 61.18142 | -72.02753 | 37607 ft | 448 kts | 71° |
| 2026-04-25 17:25 | 61.19684 | -71.90221 | 37600 ft | 449 kts | 71° |
| 2026-04-25 17:26 | 61.21216 | -71.77675 | 37606 ft | 449 kts | 71° |
| 2026-04-25 17:26 | 61.22735 | -71.65111 | 37604 ft | 449 kts | 71° |
| 2026-04-25 17:27 | 61.24244 | -71.52514 | 37605 ft | 449 kts | 71° |
| 2026-04-25 17:27 | 61.25235 | -71.44189 | 37605 ft | 448 kts | 71° |
| 2026-04-25 17:28 | 61.27212 | -71.27442 | 37605 ft | 448 kts | 71° |
| 2026-04-25 17:28 | 61.28683 | -71.14855 | 37603 ft | 447 kts | 71° |
| 2026-04-25 17:29 | 61.30140 | -71.02278 | 37608 ft | 447 kts | 71° |
| 2026-04-25 17:29 | 61.31345 | -70.91795 | 37602 ft | 447 kts | 71° |
| 2026-04-25 17:30 | 61.32781 | -70.79188 | 37604 ft | 447 kts | 71° |
| 2026-04-25 17:30 | 61.34205 | -70.66567 | 37612 ft | 447 kts | 71° |
| 2026-04-25 17:31 | 61.35617 | -70.53936 | 37612 ft | 448 kts | 71° |
| 2026-04-25 17:31 | 61.37022 | -70.41265 | 37621 ft | 449 kts | 71° |
| 2026-04-25 17:32 | 61.38407 | -70.28649 | 37613 ft | 449 kts | 71° |
| 2026-04-25 17:32 | 61.39793 | -70.15908 | 37613 ft | 450 kts | 71° |
| 2026-04-25 17:33 | 61.41167 | -70.03153 | 37614 ft | 451 kts | 71° |
| 2026-04-25 17:33 | 61.42531 | -69.90359 | 37608 ft | 451 kts | 71° |
| 2026-04-25 17:34 | 61.43884 | -69.77545 | 37609 ft | 451 kts | 71° |
| 2026-04-25 17:34 | 61.45219 | -69.64790 | 37614 ft | 451 kts | 71° |
| 2026-04-25 17:35 | 61.46550 | -69.51948 | 37613 ft | 451 kts | 72° |
| 2026-04-25 17:35 | 61.47865 | -69.39123 | 37602 ft | 450 kts | 72° |
| 2026-04-25 17:36 | 61.49166 | -69.26310 | 37611 ft | 450 kts | 72° |
| 2026-04-25 17:36 | 61.50456 | -69.13481 | 37613 ft | 449 kts | 72° |
| 2026-04-25 17:37 | 61.51729 | -69.00672 | 37614 ft | 449 kts | 72° |
| 2026-04-25 17:37 | 61.52991 | -68.87858 | 37614 ft | 449 kts | 72° |
| 2026-04-25 17:38 | 61.54032 | -68.77172 | 37614 ft | 450 kts | 72° |
| 2026-04-25 17:38 | 61.55479 | -68.62200 | 37601 ft | 451 kts | 72° |
| 2026-04-25 17:39 | 61.56713 | -68.49308 | 37615 ft | 451 kts | 72° |
| 2026-04-25 17:39 | 61.57936 | -68.36358 | 37603 ft | 453 kts | 72° |
| 2026-04-25 17:40 | 61.59151 | -68.23337 | 37612 ft | 454 kts | 72° |
| 2026-04-25 17:40 | 61.60350 | -68.10357 | 37604 ft | 456 kts | 72° |
| 2026-04-25 17:41 | 61.61546 | -67.97251 | 37608 ft | 456 kts | 72° |
| 2026-04-25 17:41 | 61.62733 | -67.84117 | 37603 ft | 457 kts | 73° |
| 2026-04-25 17:42 | 61.63905 | -67.70989 | 37605 ft | 457 kts | 73° |
| 2026-04-25 17:42 | 61.65056 | -67.57946 | 37605 ft | 456 kts | 73° |
| 2026-04-25 17:43 | 61.66200 | -67.44839 | 37605 ft | 455 kts | 73° |
| 2026-04-25 17:43 | 61.67331 | -67.31723 | 37606 ft | 454 kts | 73° |
| 2026-04-25 17:44 | 61.68446 | -67.18632 | 37602 ft | 453 kts | 73° |
| 2026-04-25 17:44 | 61.69560 | -67.05587 | 37589 ft | 451 kts | 71° |
| 2026-04-25 17:45 | 61.71125 | -66.95275 | 37600 ft | 440 kts | 61° |
| 2026-04-25 17:45 | 61.73998 | -66.81564 | 37591 ft | 439 kts | 59° |
| 2026-04-25 17:46 | 61.76567 | -66.69871 | 37592 ft | 439 kts | 59° |
| 2026-04-25 17:46 | 61.79132 | -66.58129 | 37597 ft | 440 kts | 59° |
| 2026-04-25 17:47 | 61.81675 | -66.46339 | 37594 ft | 440 kts | 59° |
| 2026-04-25 17:47 | 61.84190 | -66.34589 | 37592 ft | 442 kts | 59° |
| 2026-04-25 17:48 | 61.87976 | -66.16763 | 37596 ft | 443 kts | 59° |
| 2026-04-25 17:49 | 61.90490 | -66.04835 | 37593 ft | 443 kts | 59° |
| 2026-04-25 17:49 | 61.93001 | -65.92862 | 37593 ft | 444 kts | 59° |
| 2026-04-25 17:50 | 61.95502 | -65.80867 | 37586 ft | 444 kts | 59° |
| 2026-04-25 17:50 | 61.97994 | -65.68843 | 37583 ft | 443 kts | 59° |
| 2026-04-25 17:51 | 62.00452 | -65.56914 | 37598 ft | 443 kts | 59° |
| 2026-04-25 17:51 | 62.02922 | -65.44861 | 37593 ft | 445 kts | 59° |
| 2026-04-25 17:52 | 62.05398 | -65.32734 | 37600 ft | 447 kts | 59° |
| 2026-04-25 17:52 | 62.07869 | -65.20529 | 37592 ft | 448 kts | 60° |
| 2026-04-25 17:53 | 62.10329 | -65.08291 | 37596 ft | 449 kts | 60° |
| 2026-04-25 17:53 | 62.12786 | -64.95997 | 37586 ft | 449 kts | 60° |
| 2026-04-25 17:54 | 62.15228 | -64.83697 | 37583 ft | 449 kts | 60° |
| 2026-04-25 17:54 | 62.17659 | -64.71398 | 37589 ft | 449 kts | 60° |
| 2026-04-25 17:55 | 62.20079 | -64.59080 | 37551 ft | 448 kts | 60° |
| 2026-04-25 17:55 | 62.22468 | -64.46840 | 37550 ft | 447 kts | 60° |
| 2026-04-25 17:56 | 62.24854 | -64.34535 | 37550 ft | 446 kts | 60° |
| 2026-04-25 17:56 | 62.27227 | -64.22233 | 37549 ft | 445 kts | 60° |
| 2026-04-25 17:57 | 62.29569 | -64.10010 | 37550 ft | 444 kts | 60° |
| 2026-04-25 17:57 | 62.31910 | -63.97719 | 37549 ft | 444 kts | 60° |
| 2026-04-25 17:58 | 62.34241 | -63.85405 | 37479 ft | 444 kts | 60° |
| 2026-04-25 17:58 | 62.36568 | -63.73044 | 37476 ft | 446 kts | 61° |
| 2026-04-25 17:59 | 62.38892 | -63.60631 | 37477 ft | 447 kts | 61° |
| 2026-04-25 17:59 | 62.41212 | -63.48153 | 37475 ft | 449 kts | 61° |
| 2026-04-25 18:00 | 62.43526 | -63.35609 | 37465 ft | 451 kts | 61° |
| 2026-04-25 18:00 | 62.45826 | -63.23052 | 37461 ft | 452 kts | 61° |
| 2026-04-25 18:01 | 62.48138 | -63.10366 | 37470 ft | 454 kts | 61° |
| 2026-04-25 18:01 | 62.50454 | -62.97617 | 37445 ft | 455 kts | 60° |
| 2026-04-25 18:02 | 62.53055 | -62.85181 | 37463 ft | 452 kts | 57° |
| 2026-04-25 18:02 | 62.55810 | -62.72910 | 37464 ft | 452 kts | 57° |
| 2026-04-25 18:03 | 62.58524 | -62.60570 | 37444 ft | 453 kts | 58° |
| 2026-04-25 18:03 | 62.61189 | -62.48148 | 37432 ft | 453 kts | 58° |
| 2026-04-25 18:04 | 62.63808 | -62.35775 | 37383 ft | 453 kts | 58° |
| 2026-04-25 18:04 | 62.66430 | -62.23316 | 37372 ft | 453 kts | 58° |
| 2026-04-25 18:05 | 62.69048 | -62.10817 | 37380 ft | 453 kts | 58° |
| 2026-04-25 18:05 | 62.71657 | -61.98288 | 37380 ft | 454 kts | 58° |
| 2026-04-25 18:06 | 62.74258 | -61.85723 | 37372 ft | 455 kts | 59° |
| 2026-04-25 18:06 | 62.76859 | -61.73075 | 37365 ft | 457 kts | 59° |
| 2026-04-25 18:07 | 62.79441 | -61.60452 | 37374 ft | 459 kts | 59° |
| 2026-04-25 18:07 | 62.82035 | -61.47691 | 37340 ft | 460 kts | 59° |
| 2026-04-25 18:08 | 62.84626 | -61.34861 | 37340 ft | 462 kts | 59° |
| 2026-04-25 18:08 | 62.87215 | -61.21958 | 37340 ft | 463 kts | 59° |
| 2026-04-25 18:09 | 62.89798 | -61.09002 | 37330 ft | 464 kts | 59° |
| 2026-04-25 18:09 | 62.92376 | -60.96006 | 37330 ft | 465 kts | 59° |
| 2026-04-25 18:10 | 62.94945 | -60.82955 | 37330 ft | 466 kts | 60° |
| 2026-04-25 18:10 | 62.97504 | -60.69859 | 37330 ft | 466 kts | 60° |
| 2026-04-25 18:11 | 63.00049 | -60.56779 | 37329 ft | 467 kts | 60° |
| 2026-04-25 18:11 | 63.02604 | -60.43561 | 37322 ft | 468 kts | 60° |
| 2026-04-25 18:12 | 63.05144 | -60.30302 | 37319 ft | 470 kts | 61° |
| 2026-04-25 18:12 | 63.07686 | -60.16943 | 37314 ft | 475 kts | 61° |
| 2026-04-25 18:13 | 63.10222 | -60.03550 | 37311 ft | 475 kts | 61° |
| 2026-04-25 18:13 | 63.12337 | -59.92306 | 37311 ft | 477 kts | 61° |
| 2026-04-25 18:14 | 63.16143 | -59.71899 | 37302 ft | 478 kts | 61° |
| 2026-04-25 18:14 | 63.18661 | -59.58259 | 37300 ft | 478 kts | 61° |
| 2026-04-25 18:15 | 63.21169 | -59.44619 | 37301 ft | 479 kts | 61° |
| 2026-04-25 18:15 | 63.23667 | -59.30921 | 37300 ft | 479 kts | 62° |
| 2026-04-25 18:16 | 63.26153 | -59.17191 | 37293 ft | 479 kts | 62° |
| 2026-04-25 18:17 | 63.29851 | -58.96628 | 37276 ft | 480 kts | 62° |
| 2026-04-25 18:17 | 63.32308 | -58.82803 | 37274 ft | 479 kts | 62° |
| 2026-04-25 18:18 | 63.34757 | -58.68951 | 37272 ft | 480 kts | 62° |
| 2026-04-25 18:18 | 63.37204 | -58.55033 | 37266 ft | 482 kts | 62° |
| 2026-04-25 18:19 | 63.39638 | -58.41067 | 37267 ft | 484 kts | 62° |
| 2026-04-25 18:19 | 63.42052 | -58.27112 | 37258 ft | 485 kts | 62° |
| 2026-04-25 18:20 | 63.44470 | -58.13001 | 37256 ft | 487 kts | 62° |
| 2026-04-25 18:20 | 63.46714 | -57.98625 | 37252 ft | 495 kts | 70° |
| 2026-04-25 18:21 | 63.48291 | -57.83559 | 37249 ft | 499 kts | 71° |
| 2026-04-25 18:21 | 63.49721 | -57.68380 | 37237 ft | 497 kts | 72° |
| 2026-04-25 18:22 | 63.51116 | -57.53169 | 37237 ft | 497 kts | 72° |
| 2026-04-25 18:22 | 63.52489 | -57.38104 | 37231 ft | 496 kts | 72° |
| 2026-04-25 18:23 | 63.53860 | -57.22969 | 37225 ft | 495 kts | 72° |
| 2026-04-25 18:23 | 63.55221 | -57.07819 | 37220 ft | 494 kts | 73° |
| 2026-04-25 18:24 | 63.56557 | -56.92695 | 37212 ft | 494 kts | 73° |
| 2026-04-25 18:24 | 63.57880 | -56.77524 | 37207 ft | 495 kts | 73° |
| 2026-04-25 18:25 | 63.59189 | -56.62370 | 37200 ft | 495 kts | 73° |
| 2026-04-25 18:25 | 63.60486 | -56.47158 | 37178 ft | 497 kts | 73° |
| 2026-04-25 18:26 | 63.61769 | -56.31887 | 37188 ft | 498 kts | 73° |
| 2026-04-25 18:26 | 63.63042 | -56.16551 | 37173 ft | 499 kts | 74° |
| 2026-04-25 18:27 | 63.64300 | -56.01187 | 37178 ft | 500 kts | 74° |
| 2026-04-25 18:27 | 63.65541 | -55.85784 | 37159 ft | 500 kts | 74° |
| 2026-04-25 18:28 | 63.66753 | -55.70473 | 37165 ft | 499 kts | 74° |
| 2026-04-25 18:28 | 63.67956 | -55.55097 | 37155 ft | 498 kts | 75° |
| 2026-04-25 18:29 | 63.69739 | -55.31941 | 37155 ft | 498 kts | 75° |
| 2026-04-25 18:30 | 63.72036 | -55.01283 | 37147 ft | 496 kts | 76° |
| 2026-04-25 18:30 | 63.73166 | -54.85904 | 37138 ft | 496 kts | 76° |
| 2026-04-25 18:31 | 63.74276 | -54.70529 | 37137 ft | 496 kts | 77° |
| 2026-04-25 18:31 | 63.75371 | -54.55108 | 37136 ft | 497 kts | 77° |
| 2026-04-25 18:32 | 63.76453 | -54.39644 | 37128 ft | 498 kts | 77° |
| 2026-04-25 18:32 | 63.77511 | -54.24216 | 37127 ft | 500 kts | 78° |
| 2026-04-25 18:33 | 63.78564 | -54.08647 | 37126 ft | 501 kts | 78° |
| 2026-04-25 18:33 | 63.79600 | -53.93057 | 37119 ft | 501 kts | 78° |
| 2026-04-25 18:34 | 63.80621 | -53.77451 | 37121 ft | 501 kts | 78° |
| 2026-04-25 18:34 | 63.81626 | -53.61808 | 37117 ft | 501 kts | 78° |
| 2026-04-25 18:35 | 63.82611 | -53.46193 | 37109 ft | 500 kts | 79° |
| 2026-04-25 18:35 | 63.83571 | -53.30710 | 37106 ft | 499 kts | 79° |
| 2026-04-25 18:36 | 63.84517 | -53.15163 | 37107 ft | 498 kts | 79° |
| 2026-04-25 18:36 | 63.85446 | -52.99634 | 37112 ft | 497 kts | 80° |
| 2026-04-25 18:37 | 63.86356 | -52.84130 | 37108 ft | 496 kts | 80° |
| 2026-04-25 18:37 | 63.87250 | -52.68606 | 37107 ft | 496 kts | 81° |
| 2026-04-25 18:38 | 63.88128 | -52.53070 | 37113 ft | 496 kts | 81° |
| 2026-04-25 18:38 | 63.88990 | -52.37513 | 37101 ft | 497 kts | 81° |
| 2026-04-25 18:39 | 63.89835 | -52.21915 | 37098 ft | 498 kts | 82° |
| 2026-04-25 18:39 | 63.90665 | -52.06298 | 37103 ft | 498 kts | 82° |
| 2026-04-25 18:40 | 63.91478 | -51.90657 | 37097 ft | 499 kts | 82° |
| 2026-04-25 18:40 | 63.92271 | -51.75091 | 37107 ft | 499 kts | 82° |
| 2026-04-25 18:41 | 63.93050 | -51.59441 | 37104 ft | 498 kts | 82° |
| 2026-04-25 18:41 | 63.93814 | -51.43780 | 37102 ft | 497 kts | 82° |
| 2026-04-25 18:42 | 63.94315 | -51.33311 | 37098 ft | 497 kts | 83° |
| 2026-04-25 18:42 | 63.95288 | -51.12518 | 37098 ft | 495 kts | 83° |
| 2026-04-25 18:43 | 63.95994 | -50.96936 | 37101 ft | 495 kts | 83° |
| 2026-04-25 18:43 | 63.96684 | -50.81362 | 37101 ft | 495 kts | 83° |
| 2026-04-25 18:44 | 63.97353 | -50.65854 | 37104 ft | 495 kts | 84° |
| 2026-04-25 18:44 | 63.98011 | -50.50257 | 37099 ft | 495 kts | 84° |
| 2026-04-25 18:45 | 63.98654 | -50.34634 | 37095 ft | 495 kts | 84° |
| 2026-04-25 18:45 | 63.99280 | -50.18943 | 37100 ft | 496 kts | 84° |
| 2026-04-25 18:46 | 63.99890 | -50.03263 | 37095 ft | 498 kts | 85° |
| 2026-04-25 18:46 | 64.00469 | -49.87514 | 37093 ft | 498 kts | 85° |
| 2026-04-25 18:47 | 64.00977 | -49.71765 | 37090 ft | 498 kts | 85° |
| 2026-04-25 18:47 | 64.01466 | -49.56022 | 37094 ft | 498 kts | 86° |
| 2026-04-25 18:48 | 64.01946 | -49.40359 | 37093 ft | 498 kts | 86° |
| 2026-04-25 18:48 | 64.02416 | -49.24569 | 37092 ft | 499 kts | 86° |
| 2026-04-25 18:49 | 64.02871 | -49.08741 | 37096 ft | 500 kts | 86° |
| 2026-04-25 18:49 | 64.03308 | -48.92893 | 37082 ft | 500 kts | 87° |
| 2026-04-25 18:50 | 64.03724 | -48.77016 | 37081 ft | 500 kts | 87° |
| 2026-04-25 18:50 | 64.04126 | -48.61156 | 37082 ft | 500 kts | 87° |
| 2026-04-25 18:51 | 64.04386 | -48.50653 | 37083 ft | 500 kts | 87° |
| 2026-04-25 18:51 | 64.04881 | -48.29563 | 37081 ft | 499 kts | 88° |
| 2026-04-25 18:52 | 64.05232 | -48.13737 | 37074 ft | 498 kts | 88° |
| 2026-04-25 18:52 | 64.05563 | -47.97943 | 37072 ft | 498 kts | 88° |
| 2026-04-25 18:53 | 64.05877 | -47.82136 | 37073 ft | 498 kts | 88° |
| 2026-04-25 18:53 | 64.06175 | -47.66313 | 37073 ft | 498 kts | 88° |
| 2026-04-25 18:54 | 64.06586 | -47.42694 | 37064 ft | 498 kts | 89° |
| 2026-04-25 18:55 | 64.06841 | -47.26863 | 37063 ft | 498 kts | 89° |
| 2026-04-25 18:55 | 64.07080 | -47.11018 | 37063 ft | 498 kts | 89° |
| 2026-04-25 18:56 | 64.07266 | -46.97848 | 37063 ft | 498 kts | 89° |
| 2026-04-25 18:56 | 64.07473 | -46.82012 | 37063 ft | 498 kts | 89° |
| 2026-04-25 18:57 | 64.07662 | -46.66193 | 37055 ft | 497 kts | 89° |
| 2026-04-25 18:57 | 64.07833 | -46.50432 | 37047 ft | 495 kts | 90° |
| 2026-04-25 18:58 | 64.07985 | -46.34788 | 37085 ft | 494 kts | 90° |
| 2026-04-25 18:58 | 64.08184 | -46.11238 | 37089 ft | 493 kts | 90° |
| 2026-04-25 18:59 | 64.08388 | -45.79886 | 37081 ft | 493 kts | 90° |
| 2026-04-25 19:00 | 64.08498 | -45.56481 | 37081 ft | 493 kts | 90° |
| 2026-04-25 19:01 | 64.08572 | -45.32962 | 37082 ft | 493 kts | 91° |
| 2026-04-25 19:01 | 64.08599 | -45.17272 | 37082 ft | 493 kts | 91° |
| 2026-04-25 19:02 | 64.08607 | -44.93744 | 37074 ft | 493 kts | 91° |
| 2026-04-25 19:03 | 64.08580 | -44.72901 | 37073 ft | 492 kts | 91° |
| 2026-04-25 19:03 | 64.08537 | -44.54728 | 37073 ft | 490 kts | 91° |
| 2026-04-25 19:04 | 64.08447 | -44.31444 | 37073 ft | 487 kts | 92° |
| 2026-04-25 19:05 | 64.08270 | -44.00508 | 37064 ft | 484 kts | 92° |
| 2026-04-25 19:06 | 64.08156 | -43.85183 | 37063 ft | 484 kts | 92° |
| 2026-04-25 19:06 | 64.07956 | -43.62092 | 37063 ft | 485 kts | 92° |
| 2026-04-25 19:07 | 64.07719 | -43.38968 | 37063 ft | 486 kts | 93° |
| 2026-04-25 19:08 | 64.07444 | -43.15767 | 37064 ft | 487 kts | 94° |
| 2026-04-25 19:09 | 64.07058 | -42.87469 | 37056 ft | 487 kts | 94° |
| 2026-04-25 19:10 | 64.06660 | -42.61749 | 37055 ft | 485 kts | 94° |
| 2026-04-25 19:10 | 64.06399 | -42.46362 | 37054 ft | 484 kts | 94° |
| 2026-04-25 19:11 | 64.06125 | -42.31102 | 37052 ft | 481 kts | 94° |
| 2026-04-25 19:11 | 64.05835 | -42.15835 | 37054 ft | 480 kts | 94° |
| 2026-04-25 19:12 | 64.05531 | -42.00614 | 37053 ft | 479 kts | 95° |
| 2026-04-25 19:12 | 64.05210 | -41.85407 | 37052 ft | 479 kts | 95° |
| 2026-04-25 19:13 | 64.04873 | -41.70206 | 37048 ft | 479 kts | 95° |
| 2026-04-25 19:13 | 64.04521 | -41.54990 | 37046 ft | 480 kts | 95° |
| 2026-04-25 19:14 | 64.04153 | -41.39828 | 37044 ft | 481 kts | 95° |
| 2026-04-25 19:14 | 64.03766 | -41.24543 | 37044 ft | 482 kts | 96° |
| 2026-04-25 19:15 | 64.03363 | -41.09257 | 37045 ft | 483 kts | 96° |
| 2026-04-25 19:15 | 64.02942 | -40.93962 | 37044 ft | 484 kts | 96° |
| 2026-04-25 19:16 | 64.02505 | -40.78616 | 37043 ft | 484 kts | 96° |
| 2026-04-25 19:16 | 64.02053 | -40.63299 | 37044 ft | 483 kts | 96° |
| 2026-04-25 19:17 | 64.01587 | -40.48014 | 37044 ft | 482 kts | 96° |
| 2026-04-25 19:17 | 64.01105 | -40.32767 | 37046 ft | 481 kts | 96° |
| 2026-04-25 19:18 | 64.00606 | -40.17541 | 37041 ft | 481 kts | 97° |
| 2026-04-25 19:18 | 64.00096 | -40.02453 | 37033 ft | 480 kts | 97° |
| 2026-04-25 19:19 | 63.99394 | -39.87343 | 37034 ft | 479 kts | 101° |
| 2026-04-25 19:19 | 63.98357 | -39.72369 | 37034 ft | 478 kts | 102° |
| 2026-04-25 19:20 | 63.97301 | -39.57440 | 37035 ft | 477 kts | 101° |
| 2026-04-25 19:20 | 63.96288 | -39.42536 | 37034 ft | 476 kts | 101° |
| 2026-04-25 19:21 | 63.95290 | -39.27671 | 37034 ft | 474 kts | 101° |
| 2026-04-25 19:21 | 63.93780 | -39.05592 | 37034 ft | 471 kts | 101° |
| 2026-04-25 19:22 | 63.92751 | -38.90875 | 37034 ft | 470 kts | 102° |
| 2026-04-25 19:23 | 63.91185 | -38.68864 | 37034 ft | 470 kts | 102° |
| 2026-04-25 19:23 | 63.89587 | -38.46891 | 37034 ft | 470 kts | 102° |
| 2026-04-25 19:24 | 63.88500 | -38.32254 | 37036 ft | 471 kts | 102° |
| 2026-04-25 19:25 | 63.86284 | -38.03012 | 37036 ft | 472 kts | 103° |
| 2026-04-25 19:25 | 63.85148 | -37.88335 | 37034 ft | 473 kts | 103° |
| 2026-04-25 19:26 | 63.83997 | -37.73647 | 37034 ft | 472 kts | 103° |
| 2026-04-25 19:26 | 63.82835 | -37.59040 | 37009 ft | 470 kts | 103° |
| 2026-04-25 19:27 | 63.81860 | -37.46946 | 37009 ft | 469 kts | 103° |
| 2026-04-25 19:27 | 63.80475 | -37.29970 | 37008 ft | 468 kts | 103° |
| 2026-04-25 19:28 | 63.79286 | -37.15615 | 37008 ft | 466 kts | 103° |
| 2026-04-25 19:28 | 63.78079 | -37.01212 | 37000 ft | 465 kts | 103° |
| 2026-04-25 19:29 | 63.76862 | -36.86856 | 36998 ft | 464 kts | 104° |
| 2026-04-25 19:29 | 63.75632 | -36.72538 | 36998 ft | 464 kts | 104° |
| 2026-04-25 19:30 | 63.74385 | -36.58208 | 36999 ft | 465 kts | 104° |
| 2026-04-25 19:30 | 63.73121 | -36.43870 | 36999 ft | 465 kts | 104° |
| 2026-04-25 19:31 | 63.71851 | -36.29610 | 36999 ft | 466 kts | 104° |
| 2026-04-25 19:31 | 63.70558 | -36.15269 | 36999 ft | 467 kts | 104° |
| 2026-04-25 19:32 | 63.69246 | -36.00907 | 36998 ft | 467 kts | 104° |
| 2026-04-25 19:32 | 63.68368 | -35.91394 | 37000 ft | 468 kts | 105° |
| 2026-04-25 19:33 | 63.66581 | -35.72224 | 36999 ft | 467 kts | 105° |
| 2026-04-25 19:33 | 63.65230 | -35.57927 | 36999 ft | 466 kts | 105° |
| 2026-04-25 19:34 | 63.63869 | -35.43694 | 36999 ft | 465 kts | 105° |
| 2026-04-25 19:34 | 63.62497 | -35.29501 | 36999 ft | 463 kts | 105° |
| 2026-04-25 19:35 | 63.61122 | -35.15445 | 36999 ft | 462 kts | 105° |
| 2026-04-25 19:35 | 63.59727 | -35.01344 | 36999 ft | 461 kts | 105° |
| 2026-04-25 19:36 | 63.58324 | -34.87290 | 37007 ft | 461 kts | 105° |
| 2026-04-25 19:36 | 63.56906 | -34.73250 | 37009 ft | 461 kts | 106° |
| 2026-04-25 19:37 | 63.55469 | -34.59203 | 37008 ft | 461 kts | 106° |
| 2026-04-25 19:37 | 63.54019 | -34.45148 | 37008 ft | 462 kts | 106° |
| 2026-04-25 19:38 | 63.52565 | -34.31176 | 37008 ft | 463 kts | 106° |
| 2026-04-25 19:38 | 63.51085 | -34.17125 | 37008 ft | 464 kts | 106° |
| 2026-04-25 19:39 | 63.49586 | -34.03049 | 37008 ft | 464 kts | 107° |
| 2026-04-25 19:39 | 63.48080 | -33.89020 | 37008 ft | 464 kts | 107° |
| 2026-04-25 19:40 | 63.46558 | -33.75016 | 37008 ft | 464 kts | 107° |
| 2026-04-25 19:40 | 63.45277 | -33.63326 | 37008 ft | 463 kts | 107° |
| 2026-04-25 19:41 | 63.43736 | -33.49396 | 37008 ft | 462 kts | 107° |
| 2026-04-25 19:41 | 63.42442 | -33.37798 | 37008 ft | 461 kts | 107° |
| 2026-04-25 19:42 | 63.40614 | -33.21587 | 37017 ft | 460 kts | 107° |
| 2026-04-25 19:42 | 63.39049 | -33.07830 | 37017 ft | 459 kts | 107° |
| 2026-04-25 19:43 | 63.37459 | -32.93999 | 37017 ft | 458 kts | 107° |
| 2026-04-25 19:43 | 63.35867 | -32.80293 | 37017 ft | 457 kts | 107° |
| 2026-04-25 19:44 | 63.34261 | -32.66592 | 37018 ft | 457 kts | 108° |
| 2026-04-25 19:44 | 63.32652 | -32.52992 | 37018 ft | 457 kts | 108° |
| 2026-04-25 19:45 | 63.31022 | -32.39323 | 37018 ft | 457 kts | 108° |
| 2026-04-25 19:45 | 63.29370 | -32.25626 | 37018 ft | 458 kts | 108° |
| 2026-04-25 19:46 | 63.27710 | -32.11955 | 37029 ft | 457 kts | 108° |
| 2026-04-25 19:46 | 63.26047 | -31.98399 | 37027 ft | 458 kts | 108° |
| 2026-04-25 19:47 | 63.24361 | -31.84758 | 37026 ft | 458 kts | 108° |
| 2026-04-25 19:47 | 63.22666 | -31.71162 | 37026 ft | 457 kts | 108° |
| 2026-04-25 19:48 | 63.20955 | -31.57583 | 37026 ft | 456 kts | 108° |
| 2026-04-25 19:48 | 63.19234 | -31.44044 | 37026 ft | 456 kts | 108° |
| 2026-04-25 19:49 | 63.17800 | -31.32839 | 37027 ft | 455 kts | 108° |
| 2026-04-25 19:49 | 63.15762 | -31.17082 | 37041 ft | 455 kts | 109° |
| 2026-04-25 19:50 | 63.13132 | -30.96919 | 37037 ft | 454 kts | 109° |
| 2026-04-25 19:51 | 63.11359 | -30.83490 | 37034 ft | 454 kts | 109° |
| 2026-04-25 19:51 | 63.09577 | -30.70110 | 37041 ft | 454 kts | 109° |
| 2026-04-25 19:52 | 63.07797 | -30.56832 | 37046 ft | 454 kts | 109° |
| 2026-04-25 19:52 | 63.05992 | -30.43474 | 37047 ft | 454 kts | 109° |
| 2026-04-25 19:53 | 63.04172 | -30.30128 | 37046 ft | 454 kts | 109° |
| 2026-04-25 19:53 | 63.02342 | -30.16823 | 37046 ft | 453 kts | 109° |
| 2026-04-25 19:54 | 63.00656 | -30.03406 | 37046 ft | 455 kts | 102° |
| 2026-04-25 19:54 | 63.00367 | -29.89546 | 37050 ft | 459 kts | 90° |
| 2026-04-25 19:55 | 63.00781 | -29.75395 | 37055 ft | 460 kts | 88° |
| 2026-04-25 19:55 | 63.01287 | -29.61439 | 37051 ft | 460 kts | 88° |
| 2026-04-25 19:56 | 63.01772 | -29.47354 | 37053 ft | 460 kts | 88° |
| 2026-04-25 19:56 | 63.02218 | -29.33272 | 37057 ft | 461 kts | 88° |
| 2026-04-25 19:57 | 63.02641 | -29.19183 | 37055 ft | 461 kts | 89° |
| 2026-04-25 19:57 | 63.03047 | -29.05171 | 37063 ft | 461 kts | 89° |
| 2026-04-25 19:58 | 63.03444 | -28.91077 | 37063 ft | 461 kts | 89° |
| 2026-04-25 19:58 | 63.03827 | -28.76971 | 37063 ft | 461 kts | 89° |
| 2026-04-25 19:59 | 63.04197 | -28.62839 | 37063 ft | 461 kts | 89° |
| 2026-04-25 19:59 | 63.04550 | -28.48725 | 37066 ft | 461 kts | 89° |
| 2026-04-25 20:00 | 63.04889 | -28.34617 | 37070 ft | 461 kts | 89° |
| 2026-04-25 20:00 | 63.05217 | -28.20472 | 37073 ft | 461 kts | 89° |
| 2026-04-25 20:01 | 63.05680 | -27.99248 | 37073 ft | 462 kts | 90° |
| 2026-04-25 20:01 | 63.05971 | -27.85101 | 37072 ft | 462 kts | 89° |
| 2026-04-25 20:02 | 63.06250 | -27.70924 | 37073 ft | 462 kts | 90° |
| 2026-04-25 20:02 | 63.06512 | -27.56747 | 37073 ft | 462 kts | 90° |
| 2026-04-25 20:03 | 63.06760 | -27.42674 | 37080 ft | 462 kts | 90° |
| 2026-04-25 20:03 | 63.06996 | -27.28513 | 37082 ft | 462 kts | 90° |
| 2026-04-25 20:04 | 63.07220 | -27.14348 | 37082 ft | 462 kts | 90° |
| 2026-04-25 20:04 | 63.07427 | -27.00185 | 37082 ft | 462 kts | 90° |
| 2026-04-25 20:05 | 63.07618 | -26.85988 | 37081 ft | 462 kts | 90° |
| 2026-04-25 20:05 | 63.07797 | -26.71807 | 37082 ft | 462 kts | 90° |
| 2026-04-25 20:06 | 63.07965 | -26.57638 | 37082 ft | 462 kts | 90° |
| 2026-04-25 20:06 | 63.08116 | -26.43432 | 37082 ft | 463 kts | 91° |
| 2026-04-25 20:07 | 63.08250 | -26.29235 | 37088 ft | 463 kts | 91° |
| 2026-04-25 20:07 | 63.08371 | -26.15097 | 37089 ft | 463 kts | 91° |
| 2026-04-25 20:08 | 63.08479 | -26.00852 | 37094 ft | 463 kts | 91° |
| 2026-04-25 20:08 | 63.08571 | -25.86612 | 37089 ft | 464 kts | 91° |
| 2026-04-25 20:09 | 63.08652 | -25.72349 | 37094 ft | 464 kts | 91° |
| 2026-04-25 20:09 | 63.08719 | -25.58108 | 37088 ft | 464 kts | 91° |
| 2026-04-25 20:10 | 63.08771 | -25.43968 | 37093 ft | 464 kts | 91° |
| 2026-04-25 20:10 | 63.08807 | -25.29725 | 37090 ft | 464 kts | 91° |
| 2026-04-25 20:11 | 63.08828 | -25.15498 | 37093 ft | 464 kts | 91° |
| 2026-04-25 20:11 | 63.08836 | -25.01253 | 37089 ft | 464 kts | 92° |
| 2026-04-25 20:12 | 63.08834 | -24.86977 | 37089 ft | 464 kts | 92° |
| 2026-04-25 20:12 | 63.08822 | -24.77449 | 37095 ft | 464 kts | 92° |
| 2026-04-25 20:13 | 63.08775 | -24.58461 | 37100 ft | 464 kts | 92° |
| 2026-04-25 20:13 | 63.08726 | -24.44199 | 37098 ft | 464 kts | 92° |
| 2026-04-25 20:14 | 63.08663 | -24.29944 | 37106 ft | 465 kts | 92° |
| 2026-04-25 20:14 | 63.08586 | -24.15761 | 37099 ft | 464 kts | 92° |
| 2026-04-25 20:15 | 63.08494 | -24.01493 | 37101 ft | 465 kts | 92° |
| 2026-04-25 20:15 | 63.08389 | -23.87216 | 37098 ft | 466 kts | 92° |
| 2026-04-25 20:16 | 63.08266 | -23.72920 | 37103 ft | 466 kts | 92° |
| 2026-04-25 20:16 | 63.08131 | -23.58636 | 37104 ft | 466 kts | 93° |
| 2026-04-25 20:17 | 63.07983 | -23.44340 | 37094 ft | 466 kts | 93° |
| 2026-04-25 20:17 | 63.07818 | -23.30034 | 37099 ft | 466 kts | 93° |
| 2026-04-25 20:18 | 63.07640 | -23.15755 | 37102 ft | 465 kts | 93° |
| 2026-04-25 20:18 | 63.07450 | -23.01466 | 37101 ft | 465 kts | 93° |
| 2026-04-25 20:19 | 63.07242 | -22.87176 | 37098 ft | 466 kts | 93° |
| 2026-04-25 20:19 | 63.07021 | -22.72970 | 37105 ft | 466 kts | 94° |
| 2026-04-25 20:20 | 63.06785 | -22.58676 | 37100 ft | 466 kts | 94° |
| 2026-04-25 20:20 | 63.06534 | -22.44363 | 37117 ft | 466 kts | 94° |
| 2026-04-25 20:21 | 63.06269 | -22.30051 | 37116 ft | 467 kts | 94° |
| 2026-04-25 20:21 | 63.05989 | -22.15736 | 37116 ft | 467 kts | 94° |
| 2026-04-25 20:22 | 63.05796 | -22.06265 | 37116 ft | 467 kts | 94° |
| 2026-04-25 20:22 | 63.05389 | -21.87210 | 37115 ft | 467 kts | 94° |
| 2026-04-25 20:23 | 63.05064 | -21.72903 | 37129 ft | 467 kts | 94° |
| 2026-04-25 20:23 | 63.04782 | -21.61000 | 37127 ft | 467 kts | 94° |
| 2026-04-25 20:24 | 63.04434 | -21.46669 | 37128 ft | 468 kts | 95° |
| 2026-04-25 20:24 | 63.04071 | -21.32355 | 37129 ft | 467 kts | 95° |
| 2026-04-25 20:25 | 63.03628 | -21.15726 | 37129 ft | 467 kts | 95° |
| 2026-04-25 20:25 | 63.03299 | -21.03838 | 37128 ft | 467 kts | 95° |
| 2026-04-25 20:26 | 63.02891 | -20.89536 | 37128 ft | 468 kts | 95° |
| 2026-04-25 20:26 | 63.02470 | -20.75231 | 37128 ft | 468 kts | 95° |
| 2026-04-25 20:27 | 63.02033 | -20.60919 | 37128 ft | 468 kts | 95° |
| 2026-04-25 20:27 | 63.01580 | -20.46602 | 37129 ft | 468 kts | 96° |
| 2026-04-25 20:28 | 63.01114 | -20.32305 | 37128 ft | 468 kts | 96° |
| 2026-04-25 20:28 | 63.00636 | -20.17995 | 37127 ft | 468 kts | 96° |
| 2026-04-25 20:29 | 63.00147 | -20.03691 | 37129 ft | 469 kts | 95° |
| 2026-04-25 20:29 | 63.00187 | -19.89307 | 37130 ft | 471 kts | 90° |
| 2026-04-25 20:30 | 63.00404 | -19.74980 | 37128 ft | 472 kts | 89° |
| 2026-04-25 20:30 | 63.00642 | -19.60543 | 37128 ft | 472 kts | 89° |
| 2026-04-25 20:31 | 63.00860 | -19.46095 | 37128 ft | 472 kts | 90° |
| 2026-04-25 20:31 | 63.01053 | -19.31650 | 37128 ft | 472 kts | 90° |
| 2026-04-25 20:32 | 63.01230 | -19.17185 | 37128 ft | 472 kts | 90° |
| 2026-04-25 20:32 | 63.01391 | -19.02835 | 37128 ft | 471 kts | 90° |
| 2026-04-25 20:33 | 63.01540 | -18.88387 | 37130 ft | 472 kts | 90° |
| 2026-04-25 20:33 | 63.01654 | -18.76257 | 37128 ft | 473 kts | 90° |
| 2026-04-25 20:34 | 63.01795 | -18.59372 | 37129 ft | 474 kts | 90° |
| 2026-04-25 20:34 | 63.01899 | -18.44936 | 37129 ft | 474 kts | 91° |
| 2026-04-25 20:35 | 63.01990 | -18.30419 | 37127 ft | 474 kts | 91° |
| 2026-04-25 20:35 | 63.02066 | -18.15907 | 37127 ft | 474 kts | 91° |
| 2026-04-25 20:36 | 63.02125 | -18.01393 | 37131 ft | 474 kts | 91° |
| 2026-04-25 20:36 | 63.02169 | -17.86875 | 37147 ft | 475 kts | 91° |
| 2026-04-25 20:37 | 63.02201 | -17.72330 | 37146 ft | 476 kts | 91° |
| 2026-04-25 20:37 | 63.02216 | -17.57751 | 37146 ft | 475 kts | 92° |
| 2026-04-25 20:38 | 63.02216 | -17.43194 | 37171 ft | 475 kts | 92° |
| 2026-04-25 20:38 | 63.02201 | -17.28643 | 37161 ft | 475 kts | 92° |
| 2026-04-25 20:39 | 63.02171 | -17.14063 | 37160 ft | 476 kts | 92° |
| 2026-04-25 20:39 | 63.02135 | -17.01944 | 37169 ft | 476 kts | 92° |
| 2026-04-25 20:40 | 63.02068 | -16.84990 | 37176 ft | 476 kts | 93° |
| 2026-04-25 20:40 | 63.01994 | -16.70416 | 37176 ft | 476 kts | 93° |
| 2026-04-25 20:41 | 63.01905 | -16.55856 | 37167 ft | 476 kts | 93° |
| 2026-04-25 20:41 | 63.01801 | -16.41276 | 37173 ft | 476 kts | 94° |
| 2026-04-25 20:42 | 63.01681 | -16.26681 | 37176 ft | 476 kts | 94° |
| 2026-04-25 20:42 | 63.01547 | -16.12098 | 37175 ft | 476 kts | 94° |
| 2026-04-25 20:43 | 63.01398 | -15.97516 | 37176 ft | 476 kts | 94° |
| 2026-04-25 20:43 | 63.01233 | -15.82932 | 37177 ft | 476 kts | 94° |
| 2026-04-25 20:44 | 63.01056 | -15.68427 | 37183 ft | 476 kts | 95° |
| 2026-04-25 20:44 | 63.00862 | -15.53846 | 37179 ft | 476 kts | 95° |
| 2026-04-25 20:45 | 63.00651 | -15.39264 | 37182 ft | 476 kts | 95° |
| 2026-04-25 20:45 | 63.00425 | -15.24695 | 37187 ft | 476 kts | 95° |
| 2026-04-25 20:46 | 63.00185 | -15.10104 | 37180 ft | 476 kts | 95° |
| 2026-04-25 20:46 | 62.99149 | -14.95849 | 37182 ft | 468 kts | 112° |
| 2026-04-25 20:47 | 62.96971 | -14.82396 | 37176 ft | 466 kts | 115° |
| 2026-04-25 20:47 | 62.94605 | -14.69243 | 37196 ft | 466 kts | 115° |
| 2026-04-25 20:48 | 62.92195 | -14.56037 | 37196 ft | 466 kts | 115° |
| 2026-04-25 20:48 | 62.89795 | -14.42834 | 37187 ft | 465 kts | 115° |
| 2026-04-25 20:49 | 62.87397 | -14.29662 | 37206 ft | 465 kts | 115° |
| 2026-04-25 20:49 | 62.84991 | -14.16523 | 37219 ft | 464 kts | 115° |
| 2026-04-25 20:50 | 62.82579 | -14.03415 | 37220 ft | 463 kts | 116° |
| 2026-04-25 20:50 | 62.80161 | -13.90378 | 37229 ft | 463 kts | 116° |
| 2026-04-25 20:51 | 62.77723 | -13.77345 | 37228 ft | 463 kts | 116° |
| 2026-04-25 20:51 | 62.75279 | -13.64349 | 37227 ft | 462 kts | 116° |
| 2026-04-25 20:52 | 62.73241 | -13.53574 | 37230 ft | 462 kts | 116° |
| 2026-04-25 20:52 | 62.70373 | -13.38504 | 37227 ft | 463 kts | 116° |
| 2026-04-25 20:53 | 62.67892 | -13.25571 | 37237 ft | 463 kts | 116° |
| 2026-04-25 20:53 | 62.65400 | -13.12662 | 37240 ft | 463 kts | 116° |
| 2026-04-25 20:54 | 62.62889 | -12.99736 | 37241 ft | 463 kts | 117° |
| 2026-04-25 20:54 | 62.60369 | -12.86849 | 37235 ft | 463 kts | 117° |
| 2026-04-25 20:55 | 62.57841 | -12.74003 | 37247 ft | 463 kts | 117° |
| 2026-04-25 20:55 | 62.55301 | -12.61171 | 37248 ft | 462 kts | 117° |
| 2026-04-25 20:56 | 62.52750 | -12.48371 | 37248 ft | 462 kts | 117° |
| 2026-04-25 20:56 | 62.50213 | -12.35700 | 37250 ft | 461 kts | 117° |
| 2026-04-25 20:57 | 62.47653 | -12.23007 | 37257 ft | 459 kts | 117° |
| 2026-04-25 20:57 | 62.45087 | -12.10375 | 37257 ft | 459 kts | 117° |
| 2026-04-25 20:58 | 62.42516 | -11.97792 | 37257 ft | 458 kts | 117° |
| 2026-04-25 20:58 | 62.39937 | -11.85233 | 37266 ft | 458 kts | 117° |
| 2026-04-25 20:59 | 62.37340 | -11.72674 | 37266 ft | 458 kts | 118° |
| 2026-04-25 20:59 | 62.34746 | -11.60225 | 37266 ft | 459 kts | 118° |
| 2026-04-25 21:00 | 62.32991 | -11.51842 | 37266 ft | 459 kts | 118° |
| 2026-04-25 21:01 | 62.28164 | -11.28906 | 37276 ft | 461 kts | 118° |
| 2026-04-25 21:01 | 62.25501 | -11.16359 | 37275 ft | 462 kts | 118° |
| 2026-04-25 21:02 | 62.22813 | -11.03793 | 37275 ft | 463 kts | 118° |
| 2026-04-25 21:02 | 62.20115 | -10.91250 | 37284 ft | 463 kts | 118° |
| 2026-04-25 21:03 | 62.17423 | -10.78802 | 37285 ft | 464 kts | 118° |
| 2026-04-25 21:03 | 62.14700 | -10.66286 | 37286 ft | 464 kts | 118° |
| 2026-04-25 21:04 | 62.11963 | -10.53787 | 37291 ft | 463 kts | 118° |
| 2026-04-25 21:04 | 62.09217 | -10.41312 | 37294 ft | 463 kts | 118° |
| 2026-04-25 21:05 | 62.06487 | -10.28985 | 37293 ft | 462 kts | 118° |
| 2026-04-25 21:05 | 62.03731 | -10.16616 | 37297 ft | 461 kts | 119° |
| 2026-04-25 21:06 | 62.01023 | -10.04212 | 37300 ft | 463 kts | 114° |
| 2026-04-25 21:06 | 61.99439 | -9.90844 | 37303 ft | 468 kts | 102° |
| 2026-04-25 21:07 | 61.98518 | -9.77210 | 37304 ft | 469 kts | 100° |
| 2026-04-25 21:07 | 61.97689 | -9.63446 | 37300 ft | 469 kts | 100° |
| 2026-04-25 21:08 | 61.96836 | -9.49689 | 37303 ft | 468 kts | 101° |
| 2026-04-25 21:08 | 61.95945 | -9.35941 | 37303 ft | 468 kts | 101° |
| 2026-04-25 21:09 | 61.94730 | -9.17704 | 37303 ft | 468 kts | 101° |
| 2026-04-25 21:09 | 61.93801 | -9.04003 | 37312 ft | 468 kts | 101° |
| 2026-04-25 21:10 | 61.92859 | -8.90308 | 37312 ft | 469 kts | 101° |
| 2026-04-25 21:10 | 61.91902 | -8.76605 | 37311 ft | 469 kts | 101° |
| 2026-04-25 21:11 | 61.90928 | -8.62888 | 37312 ft | 471 kts | 101° |
| 2026-04-25 21:11 | 61.89947 | -8.49217 | 37311 ft | 472 kts | 101° |
| 2026-04-25 21:12 | 61.88944 | -8.35447 | 37312 ft | 474 kts | 102° |
| 2026-04-25 21:12 | 61.88092 | -8.23937 | 37313 ft | 476 kts | 102° |
| 2026-04-25 21:13 | 61.86876 | -8.07714 | 37312 ft | 477 kts | 102° |
| 2026-04-25 21:13 | 61.85820 | -7.93828 | 37318 ft | 477 kts | 102° |
| 2026-04-25 21:14 | 61.84749 | -7.79954 | 37322 ft | 477 kts | 102° |
| 2026-04-25 21:14 | 61.83663 | -7.66071 | 37321 ft | 477 kts | 102° |
| 2026-04-25 21:15 | 61.82563 | -7.52209 | 37321 ft | 477 kts | 103° |
| 2026-04-25 21:15 | 61.81451 | -7.38371 | 37321 ft | 477 kts | 103° |
| 2026-04-25 21:16 | 61.80326 | -7.24555 | 37321 ft | 477 kts | 103° |
| 2026-04-25 21:16 | 61.79185 | -7.10740 | 37321 ft | 477 kts | 103° |
| 2026-04-25 21:17 | 61.78032 | -6.96911 | 37321 ft | 477 kts | 103° |
| 2026-04-25 21:17 | 61.76862 | -6.83092 | 37322 ft | 478 kts | 103° |
| 2026-04-25 21:18 | 61.75681 | -6.69324 | 37322 ft | 480 kts | 103° |
| 2026-04-25 21:18 | 61.74477 | -6.55464 | 37314 ft | 481 kts | 103° |
| 2026-04-25 21:19 | 61.73258 | -6.41569 | 37312 ft | 482 kts | 103° |
| 2026-04-25 21:19 | 61.72019 | -6.27644 | 37312 ft | 483 kts | 103° |
| 2026-04-25 21:20 | 61.70976 | -6.16045 | 37312 ft | 484 kts | 103° |
| 2026-04-25 21:20 | 61.69492 | -5.99726 | 37312 ft | 485 kts | 103° |
| 2026-04-25 21:21 | 61.68206 | -5.85762 | 37312 ft | 485 kts | 103° |
| 2026-04-25 21:21 | 61.66904 | -5.71790 | 37312 ft | 485 kts | 103° |
| 2026-04-25 21:22 | 61.65589 | -5.57850 | 37312 ft | 485 kts | 104° |
| 2026-04-25 21:22 | 61.64267 | -5.44029 | 37311 ft | 484 kts | 104° |
| 2026-04-25 21:23 | 61.62926 | -5.30145 | 37312 ft | 484 kts | 104° |
| 2026-04-25 21:23 | 61.61569 | -5.16266 | 37312 ft | 484 kts | 104° |
| 2026-04-25 21:24 | 61.60199 | -5.02383 | 37312 ft | 484 kts | 104° |
| 2026-04-25 21:24 | 61.58823 | -4.88606 | 37312 ft | 485 kts | 104° |
| 2026-04-25 21:25 | 61.57421 | -4.74738 | 37304 ft | 485 kts | 104° |
| 2026-04-25 21:25 | 61.56004 | -4.60849 | 37302 ft | 486 kts | 104° |
| 2026-04-25 21:26 | 61.54576 | -4.47010 | 37299 ft | 488 kts | 104° |
| 2026-04-25 21:26 | 61.53126 | -4.33108 | 37304 ft | 489 kts | 104° |
| 2026-04-25 21:27 | 61.51664 | -4.19242 | 37302 ft | 489 kts | 104° |
| 2026-04-25 21:27 | 61.50177 | -4.05283 | 37301 ft | 490 kts | 104° |
| 2026-04-25 21:28 | 61.48678 | -3.91351 | 37311 ft | 491 kts | 104° |
| 2026-04-25 21:28 | 61.47159 | -3.77409 | 37312 ft | 491 kts | 104° |
| 2026-04-25 21:29 | 61.45624 | -3.63474 | 37312 ft | 491 kts | 104° |
| 2026-04-25 21:29 | 61.44081 | -3.49559 | 37312 ft | 491 kts | 104° |
| 2026-04-25 21:30 | 61.42525 | -3.35664 | 37312 ft | 491 kts | 104° |
| 2026-04-25 21:30 | 61.41220 | -3.24138 | 37312 ft | 491 kts | 104° |
| 2026-04-25 21:31 | 61.39378 | -3.08023 | 37321 ft | 491 kts | 104° |
| 2026-04-25 21:31 | 61.37778 | -2.94172 | 37321 ft | 491 kts | 104° |
| 2026-04-25 21:32 | 61.36161 | -2.80310 | 37321 ft | 491 kts | 104° |
| 2026-04-25 21:32 | 61.34529 | -2.66466 | 37321 ft | 492 kts | 104° |
| 2026-04-25 21:33 | 61.32882 | -2.52615 | 37321 ft | 493 kts | 104° |
| 2026-04-25 21:33 | 61.31217 | -2.38747 | 37321 ft | 493 kts | 104° |
| 2026-04-25 21:34 | 61.29534 | -2.24884 | 37321 ft | 494 kts | 104° |
| 2026-04-25 21:34 | 61.27845 | -2.11096 | 37321 ft | 495 kts | 104° |
| 2026-04-25 21:35 | 61.26132 | -1.97235 | 37320 ft | 495 kts | 104° |
| 2026-04-25 21:35 | 61.24415 | -1.83457 | 37321 ft | 495 kts | 104° |
| 2026-04-25 21:36 | 61.22672 | -1.69610 | 37321 ft | 496 kts | 104° |
| 2026-04-25 21:36 | 61.20911 | -1.55748 | 37321 ft | 495 kts | 105° |
| 2026-04-25 21:37 | 61.19437 | -1.44245 | 37321 ft | 495 kts | 105° |
| 2026-04-25 21:37 | 61.17358 | -1.28156 | 37321 ft | 494 kts | 105° |
| 2026-04-25 21:38 | 61.15580 | -1.14520 | 37312 ft | 494 kts | 105° |
| 2026-04-25 21:38 | 61.13771 | -1.00785 | 37312 ft | 493 kts | 105° |
| 2026-04-25 21:39 | 61.11954 | -0.87112 | 37312 ft | 493 kts | 105° |
| 2026-04-25 21:39 | 61.10126 | -0.73456 | 37311 ft | 493 kts | 105° |
| 2026-04-25 21:40 | 61.08283 | -0.59816 | 37312 ft | 492 kts | 106° |
| 2026-04-25 21:40 | 61.06424 | -0.46196 | 37312 ft | 492 kts | 106° |
| 2026-04-25 21:41 | 61.04552 | -0.32595 | 37312 ft | 491 kts | 106° |
| 2026-04-25 21:41 | 61.02672 | -0.19029 | 37301 ft | 491 kts | 106° |
| 2026-04-25 21:42 | 61.00650 | -0.05572 | 37301 ft | 491 kts | 113° |
| 2026-04-25 21:42 | 60.97193 | 0.06326 | 37306 ft | 487 kts | 131° |
| 2026-04-25 21:43 | 60.92744 | 0.16954 | 37302 ft | 494 kts | 133° |
| 2026-04-25 21:43 | 60.88053 | 0.27489 | 37300 ft | 502 kts | 133° |
| 2026-04-25 21:44 | 60.83333 | 0.38044 | 37303 ft | 501 kts | 133° |
| 2026-04-25 21:45 | 60.76294 | 0.53861 | 37297 ft | 501 kts | 133° |
| 2026-04-25 21:45 | 60.71593 | 0.64394 | 37290 ft | 501 kts | 133° |
| 2026-04-25 21:46 | 60.66886 | 0.74892 | 37292 ft | 500 kts | 133° |
| 2026-04-25 21:46 | 60.62174 | 0.85347 | 37295 ft | 501 kts | 133° |
| 2026-04-25 21:47 | 60.57476 | 0.95722 | 37292 ft | 502 kts | 133° |
| 2026-04-25 21:47 | 60.52740 | 1.06132 | 37296 ft | 502 kts | 133° |
| 2026-04-25 21:48 | 60.47987 | 1.16534 | 37302 ft | 503 kts | 133° |
| 2026-04-25 21:48 | 60.43219 | 1.26922 | 37300 ft | 503 kts | 133° |
| 2026-04-25 21:49 | 60.38440 | 1.37284 | 37303 ft | 503 kts | 133° |
| 2026-04-25 21:49 | 60.33642 | 1.47639 | 37304 ft | 504 kts | 133° |
| 2026-04-25 21:50 | 60.28836 | 1.57964 | 37303 ft | 505 kts | 133° |
| 2026-04-25 21:50 | 60.24036 | 1.68228 | 37303 ft | 505 kts | 133° |
| 2026-04-25 21:51 | 60.19247 | 1.78420 | 37303 ft | 504 kts | 133° |
| 2026-04-25 21:51 | 60.14417 | 1.88654 | 37303 ft | 504 kts | 133° |
| 2026-04-25 21:52 | 60.10386 | 1.97162 | 37290 ft | 504 kts | 133° |
| 2026-04-25 21:52 | 60.05539 | 2.07348 | 37274 ft | 504 kts | 134° |
| 2026-04-25 21:53 | 60.00678 | 2.17514 | 37266 ft | 504 kts | 134° |
| 2026-04-25 21:53 | 59.95848 | 2.27569 | 37266 ft | 504 kts | 134° |
| 2026-04-25 21:54 | 59.90976 | 2.37672 | 37266 ft | 504 kts | 134° |
| 2026-04-25 21:54 | 59.86109 | 2.47715 | 37266 ft | 504 kts | 134° |
| 2026-04-25 21:55 | 59.81236 | 2.57735 | 37266 ft | 504 kts | 134° |
| 2026-04-25 21:55 | 59.76345 | 2.67736 | 37266 ft | 504 kts | 134° |
| 2026-04-25 21:56 | 59.71473 | 2.77651 | 37266 ft | 505 kts | 134° |
| 2026-04-25 21:56 | 59.66529 | 2.87672 | 37260 ft | 506 kts | 134° |
| 2026-04-25 21:57 | 59.61633 | 2.97555 | 37248 ft | 507 kts | 134° |
| 2026-04-25 21:57 | 59.56673 | 3.07520 | 37248 ft | 508 kts | 134° |
| 2026-04-25 21:58 | 59.51706 | 3.17451 | 37248 ft | 509 kts | 134° |
| 2026-04-25 21:58 | 59.46727 | 3.27363 | 37248 ft | 510 kts | 134° |
| 2026-04-25 21:59 | 59.41757 | 3.37214 | 37248 ft | 511 kts | 134° |
| 2026-04-25 21:59 | 59.36743 | 3.47111 | 37247 ft | 511 kts | 134° |
| 2026-04-25 22:00 | 59.29194 | 3.61929 | 37243 ft | 512 kts | 134° |
| 2026-04-25 22:00 | 59.24823 | 3.72758 | 37239 ft | 505 kts | 111° |
| 2026-04-25 22:01 | 59.23749 | 3.79199 | 37228 ft | 495 kts | 96° |
| 2026-04-25 22:01 | 59.23203 | 3.85739 | 37220 ft | 493 kts | 92° |
| 2026-04-25 22:01 | 59.22473 | 3.96891 | 37222 ft | 494 kts | 92° |
| 2026-04-25 22:02 | 59.21256 | 4.12367 | 37212 ft | 502 kts | 100° |
| 2026-04-25 22:02 | 59.20072 | 4.18805 | 37212 ft | 508 kts | 111° |
| 2026-04-25 22:02 | 59.18269 | 4.24780 | 37210 ft | 514 kts | 124° |
| 2026-04-25 22:03 | 59.13326 | 4.34888 | 37212 ft | 518 kts | 137° |
| 2026-04-25 22:03 | 59.07843 | 4.44039 | 37211 ft | 519 kts | 139° |
| 2026-04-25 22:04 | 59.02331 | 4.53033 | 37210 ft | 519 kts | 139° |
| 2026-04-25 22:04 | 58.96838 | 4.62144 | 37204 ft | 519 kts | 139° |
| 2026-04-25 22:05 | 58.91375 | 4.71284 | 37203 ft | 519 kts | 138° |
| 2026-04-25 22:05 | 58.85896 | 4.80438 | 37200 ft | 520 kts | 138° |
| 2026-04-25 22:06 | 58.80416 | 4.89563 | 37211 ft | 520 kts | 138° |
| 2026-04-25 22:06 | 58.74929 | 4.98637 | 37211 ft | 520 kts | 139° |
| 2026-04-25 22:07 | 58.70347 | 5.06180 | 37178 ft | 521 kts | 139° |
| 2026-04-25 22:07 | 58.63929 | 5.16705 | 37182 ft | 522 kts | 139° |
| 2026-04-25 22:08 | 58.58387 | 5.25748 | 37194 ft | 522 kts | 139° |
| 2026-04-25 22:08 | 58.52836 | 5.34776 | 37194 ft | 523 kts | 139° |
| 2026-04-25 22:09 | 58.47272 | 5.43788 | 37191 ft | 524 kts | 139° |
| 2026-04-25 22:09 | 58.41700 | 5.52765 | 37189 ft | 525 kts | 139° |
| 2026-04-25 22:10 | 58.36112 | 5.61732 | 37182 ft | 525 kts | 139° |
| 2026-04-25 22:10 | 58.30512 | 5.70681 | 37172 ft | 526 kts | 139° |
| 2026-04-25 22:11 | 58.24902 | 5.79610 | 37180 ft | 526 kts | 139° |
| 2026-04-25 22:11 | 58.19280 | 5.88522 | 37198 ft | 527 kts | 139° |
| 2026-04-25 22:12 | 58.13647 | 5.97407 | 37194 ft | 527 kts | 139° |
| 2026-04-25 22:12 | 58.08954 | 6.04779 | 37180 ft | 527 kts | 139° |
| 2026-04-25 22:13 | 58.02352 | 6.15109 | 37184 ft | 527 kts | 139° |
| 2026-04-25 22:13 | 57.96698 | 6.23917 | 37169 ft | 527 kts | 139° |
| 2026-04-25 22:14 | 57.91077 | 6.32639 | 37174 ft | 527 kts | 139° |
| 2026-04-25 22:14 | 57.85410 | 6.41392 | 37164 ft | 528 kts | 139° |
| 2026-04-25 22:15 | 57.79718 | 6.50148 | 37163 ft | 528 kts | 139° |
| 2026-04-25 22:16 | 57.71175 | 6.63219 | 37160 ft | 529 kts | 139° |
| 2026-04-25 22:16 | 57.65460 | 6.71920 | 37153 ft | 530 kts | 139° |
| 2026-04-25 22:17 | 57.59729 | 6.80602 | 37155 ft | 531 kts | 139° |
| 2026-04-25 22:17 | 57.54024 | 6.89209 | 37156 ft | 532 kts | 139° |
| 2026-04-25 22:18 | 57.48250 | 6.97890 | 37156 ft | 532 kts | 139° |
| 2026-04-25 22:18 | 57.42477 | 7.06535 | 37153 ft | 534 kts | 139° |
| 2026-04-25 22:19 | 57.36675 | 7.15184 | 37154 ft | 535 kts | 139° |
| 2026-04-25 22:19 | 57.30867 | 7.23807 | 37153 ft | 535 kts | 139° |
| 2026-04-25 22:20 | 57.25071 | 7.32370 | 37155 ft | 536 kts | 139° |
| 2026-04-25 22:20 | 57.19231 | 7.40967 | 37152 ft | 537 kts | 139° |
| 2026-04-25 22:21 | 57.13377 | 7.49545 | 37147 ft | 538 kts | 139° |
| 2026-04-25 22:21 | 57.07517 | 7.58102 | 37147 ft | 538 kts | 139° |
| 2026-04-25 22:22 | 57.01743 | 7.66767 | 37147 ft | 537 kts | 136° |
| 2026-04-25 22:22 | 56.96188 | 7.75901 | 37147 ft | 536 kts | 135° |
| 2026-04-25 22:23 | 56.90651 | 7.85048 | 37139 ft | 536 kts | 135° |
| 2026-04-25 22:23 | 56.85067 | 7.94104 | 37138 ft | 536 kts | 136° |
| 2026-04-25 22:24 | 56.79453 | 8.03088 | 37139 ft | 536 kts | 136° |
| 2026-04-25 22:24 | 56.73820 | 8.12055 | 37130 ft | 539 kts | 136° |
| 2026-04-25 22:25 | 56.68147 | 8.21050 | 37128 ft | 540 kts | 136° |
| 2026-04-25 22:25 | 56.62501 | 8.29966 | 37130 ft | 540 kts | 136° |
| 2026-04-25 22:26 | 56.56827 | 8.38898 | 37129 ft | 540 kts | 136° |
| 2026-04-25 22:26 | 56.51148 | 8.47805 | 37127 ft | 540 kts | 136° |
| 2026-04-25 22:27 | 56.45464 | 8.56682 | 37128 ft | 539 kts | 136° |
| 2026-04-25 22:27 | 56.39762 | 8.65542 | 37129 ft | 540 kts | 136° |
| 2026-04-25 22:28 | 56.34063 | 8.74362 | 37129 ft | 540 kts | 136° |
| 2026-04-25 22:28 | 56.28346 | 8.83176 | 37127 ft | 541 kts | 136° |
| 2026-04-25 22:29 | 56.22646 | 8.91930 | 37127 ft | 541 kts | 136° |
| 2026-04-25 22:29 | 56.16904 | 9.00718 | 37129 ft | 543 kts | 136° |
| 2026-04-25 22:30 | 56.08258 | 9.13881 | 37139 ft | 543 kts | 136° |
| 2026-04-25 22:30 | 56.03456 | 9.21148 | 37138 ft | 544 kts | 136° |
| 2026-04-25 22:31 | 55.96686 | 9.31342 | 37137 ft | 544 kts | 137° |
| 2026-04-25 22:31 | 55.90905 | 9.40020 | 37147 ft | 542 kts | 137° |
| 2026-04-25 22:32 | 55.85157 | 9.48623 | 37147 ft | 543 kts | 137° |
| 2026-04-25 22:32 | 55.79280 | 9.57064 | 37146 ft | 546 kts | 144° |
| 2026-04-25 22:33 | 55.75963 | 9.60355 | 37141 ft | 547 kts | 156° |
| 2026-04-25 22:33 | 55.72361 | 9.62490 | 37127 ft | 545 kts | 170° |
| 2026-04-25 22:33 | 55.64876 | 9.63697 | 37136 ft | 540 kts | 182° |
| 2026-04-25 22:34 | 55.57367 | 9.63852 | 37138 ft | 539 kts | 184° |
| 2026-04-25 22:34 | 55.49867 | 9.63923 | 37137 ft | 538 kts | 184° |
| 2026-04-25 22:35 | 55.42366 | 9.64081 | 37130 ft | 538 kts | 183° |
| 2026-04-25 22:35 | 55.34927 | 9.64287 | 37127 ft | 537 kts | 183° |
| 2026-04-25 22:36 | 55.27456 | 9.64508 | 37128 ft | 536 kts | 183° |
| 2026-04-25 22:36 | 55.20000 | 9.64727 | 37130 ft | 535 kts | 183° |
| 2026-04-25 22:37 | 55.13804 | 9.64907 | 37120 ft | 534 kts | 183° |
| 2026-04-25 22:37 | 55.06376 | 9.65121 | 37129 ft | 533 kts | 183° |
| 2026-04-25 22:38 | 54.98959 | 9.65333 | 37129 ft | 532 kts | 183° |
| 2026-04-25 22:38 | 54.91569 | 9.65542 | 37122 ft | 531 kts | 184° |
| 2026-04-25 22:39 | 54.84188 | 9.66187 | 37112 ft | 535 kts | 173° |
| 2026-04-25 22:39 | 54.76957 | 9.69439 | 37112 ft | 537 kts | 165° |
| 2026-04-25 22:40 | 54.69837 | 9.73309 | 37111 ft | 536 kts | 164° |
| 2026-04-25 22:40 | 54.62732 | 9.77265 | 37114 ft | 536 kts | 164° |
| 2026-04-25 22:41 | 54.55652 | 9.81160 | 37124 ft | 536 kts | 164° |
| 2026-04-25 22:41 | 54.48529 | 9.85030 | 37144 ft | 536 kts | 164° |
| 2026-04-25 22:42 | 54.41408 | 9.88875 | 37146 ft | 536 kts | 165° |
| 2026-04-25 22:42 | 54.34291 | 9.92707 | 37137 ft | 536 kts | 165° |
| 2026-04-25 22:43 | 54.27174 | 9.96525 | 37138 ft | 536 kts | 165° |
| 2026-04-25 22:43 | 54.20050 | 10.00334 | 37136 ft | 536 kts | 165° |
| 2026-04-25 22:44 | 54.12931 | 10.04126 | 37138 ft | 536 kts | 165° |
| 2026-04-25 22:44 | 54.05811 | 10.07908 | 37138 ft | 535 kts | 165° |
| 2026-04-25 22:45 | 53.98728 | 10.11655 | 37137 ft | 536 kts | 165° |
| 2026-04-25 22:45 | 53.91603 | 10.15410 | 37146 ft | 535 kts | 165° |
| 2026-04-25 22:46 | 53.84488 | 10.19149 | 37142 ft | 536 kts | 165° |
| 2026-04-25 22:46 | 53.77355 | 10.22880 | 37147 ft | 535 kts | 165° |
| 2026-04-25 22:47 | 53.70255 | 10.26582 | 37146 ft | 534 kts | 165° |
| 2026-04-25 22:47 | 53.63145 | 10.30276 | 37147 ft | 534 kts | 165° |
| 2026-04-25 22:48 | 53.56095 | 10.33929 | 37156 ft | 533 kts | 165° |
| 2026-04-25 22:48 | 53.48989 | 10.37594 | 37153 ft | 532 kts | 165° |
| 2026-04-25 22:49 | 53.41913 | 10.41228 | 37145 ft | 531 kts | 165° |
| 2026-04-25 22:49 | 53.34845 | 10.44850 | 37146 ft | 530 kts | 165° |
| 2026-04-25 22:50 | 53.27790 | 10.48454 | 37147 ft | 529 kts | 165° |
| 2026-04-25 22:50 | 53.20747 | 10.52040 | 37152 ft | 528 kts | 166° |
| 2026-04-25 22:51 | 53.13715 | 10.55604 | 37156 ft | 527 kts | 166° |
| 2026-04-25 22:51 | 53.06745 | 10.59127 | 37156 ft | 526 kts | 166° |
| 2026-04-25 22:52 | 52.99744 | 10.62652 | 37156 ft | 525 kts | 166° |
| 2026-04-25 22:52 | 52.93886 | 10.65592 | 37155 ft | 524 kts | 166° |
| 2026-04-25 22:53 | 52.85768 | 10.69659 | 37152 ft | 522 kts | 165° |
| 2026-04-25 22:53 | 52.78797 | 10.73114 | 37155 ft | 523 kts | 166° |
| 2026-04-25 22:54 | 52.71828 | 10.76577 | 37155 ft | 522 kts | 166° |
| 2026-04-25 22:54 | 52.64866 | 10.80045 | 37158 ft | 522 kts | 166° |
| 2026-04-25 22:55 | 52.57960 | 10.83456 | 37159 ft | 521 kts | 166° |
| 2026-04-25 22:55 | 52.51017 | 10.86868 | 37156 ft | 520 kts | 166° |
| 2026-04-25 22:56 | 52.44079 | 10.90269 | 37157 ft | 520 kts | 166° |
| 2026-04-25 22:56 | 52.37136 | 10.93661 | 37155 ft | 520 kts | 166° |
| 2026-04-25 22:57 | 52.30199 | 10.97041 | 37155 ft | 520 kts | 166° |
| 2026-04-25 22:57 | 52.23292 | 11.00395 | 37156 ft | 520 kts | 166° |
| 2026-04-25 22:58 | 52.16347 | 11.03755 | 37156 ft | 520 kts | 166° |
| 2026-04-25 22:58 | 52.09402 | 11.07107 | 37155 ft | 520 kts | 166° |
| 2026-04-25 22:59 | 52.02504 | 11.10425 | 37155 ft | 520 kts | 166° |
| 2026-04-25 22:59 | 51.95568 | 11.13745 | 37158 ft | 519 kts | 166° |
| 2026-04-25 23:00 | 51.88672 | 11.17044 | 37155 ft | 514 kts | 167° |
| 2026-04-25 23:00 | 51.81809 | 11.20315 | 37155 ft | 514 kts | 167° |
| 2026-04-25 23:01 | 51.74933 | 11.23575 | 37155 ft | 514 kts | 167° |
| 2026-04-25 23:01 | 51.68107 | 11.26806 | 37155 ft | 514 kts | 167° |
| 2026-04-25 23:02 | 51.61246 | 11.30045 | 37156 ft | 514 kts | 167° |
| 2026-04-25 23:02 | 51.54366 | 11.33278 | 37153 ft | 514 kts | 167° |
| 2026-04-25 23:03 | 51.47494 | 11.36499 | 37161 ft | 514 kts | 167° |
| 2026-04-25 23:03 | 51.40633 | 11.39710 | 37157 ft | 513 kts | 167° |
| 2026-04-25 23:04 | 51.34929 | 11.42367 | 37151 ft | 513 kts | 167° |
| 2026-04-25 23:04 | 51.26954 | 11.46069 | 37156 ft | 513 kts | 167° |
| 2026-04-25 23:05 | 51.20107 | 11.49243 | 37156 ft | 512 kts | 167° |
| 2026-04-25 23:05 | 51.13264 | 11.52399 | 37156 ft | 511 kts | 167° |
| 2026-04-25 23:06 | 51.06432 | 11.55540 | 37155 ft | 511 kts | 167° |
| 2026-04-25 23:06 | 50.99602 | 11.58672 | 37155 ft | 510 kts | 167° |
| 2026-04-25 23:07 | 50.92787 | 11.61789 | 37154 ft | 509 kts | 167° |
| 2026-04-25 23:07 | 50.85981 | 11.64895 | 37147 ft | 508 kts | 167° |
| 2026-04-25 23:08 | 50.79176 | 11.67988 | 37146 ft | 508 kts | 167° |
| 2026-04-25 23:08 | 50.72389 | 11.71062 | 37134 ft | 507 kts | 167° |
| 2026-04-25 23:09 | 50.65606 | 11.74130 | 37128 ft | 506 kts | 167° |
| 2026-04-25 23:09 | 50.58835 | 11.77178 | 37127 ft | 506 kts | 167° |
| 2026-04-25 23:10 | 50.52098 | 11.80200 | 37127 ft | 506 kts | 167° |
| 2026-04-25 23:10 | 50.45391 | 11.83561 | 37130 ft | 507 kts | 161° |
| 2026-04-25 23:11 | 50.38877 | 11.87808 | 37128 ft | 508 kts | 159° |
| 2026-04-25 23:11 | 50.32390 | 11.92215 | 37128 ft | 507 kts | 159° |
| 2026-04-25 23:12 | 50.25912 | 11.96617 | 37128 ft | 507 kts | 159° |
| 2026-04-25 23:12 | 50.19438 | 12.00984 | 37130 ft | 506 kts | 159° |
| 2026-04-25 23:13 | 50.12962 | 12.05328 | 37123 ft | 506 kts | 159° |
| 2026-04-25 23:13 | 50.06486 | 12.09655 | 37118 ft | 506 kts | 159° |
| 2026-04-25 23:14 | 50.00040 | 12.13949 | 37114 ft | 506 kts | 159° |
| 2026-04-25 23:14 | 49.93561 | 12.18254 | 37104 ft | 506 kts | 159° |
| 2026-04-25 23:15 | 49.87079 | 12.22549 | 37102 ft | 506 kts | 159° |
| 2026-04-25 23:15 | 49.80607 | 12.26827 | 37100 ft | 505 kts | 159° |
| 2026-04-25 23:16 | 49.74176 | 12.31269 | 37102 ft | 507 kts | 153° |
| 2026-04-25 23:16 | 49.71220 | 12.34250 | 37098 ft | 508 kts | 142° |
| 2026-04-25 23:16 | 49.68529 | 12.37793 | 37105 ft | 508 kts | 139° |
| 2026-04-25 23:17 | 49.63374 | 12.45266 | 37102 ft | 508 kts | 136° |
| 2026-04-25 23:17 | 49.58338 | 12.52813 | 37102 ft | 507 kts | 136° |
| 2026-04-25 23:18 | 49.53263 | 12.60362 | 37104 ft | 506 kts | 136° |
| 2026-04-25 23:18 | 49.48175 | 12.67844 | 37104 ft | 506 kts | 137° |
| 2026-04-25 23:19 | 49.43078 | 12.75291 | 37104 ft | 505 kts | 137° |
| 2026-04-25 23:19 | 49.37977 | 12.82722 | 37101 ft | 505 kts | 137° |
| 2026-04-25 23:20 | 49.32886 | 12.90115 | 37028 ft | 503 kts | 137° |
| 2026-04-25 23:20 | 49.30334 | 12.93817 | 36787 ft | 504 kts | 137° |
| 2026-04-25 23:20 | 49.27782 | 12.97512 | 36530 ft | 505 kts | 137° |
| 2026-04-25 23:21 | 49.25230 | 13.01199 | 36292 ft | 505 kts | 137° |
| 2026-04-25 23:21 | 49.23535 | 13.03646 | 36124 ft | 505 kts | 137° |
| 2026-04-25 23:21 | 49.20970 | 13.07342 | 35871 ft | 508 kts | 137° |
| 2026-04-25 23:21 | 49.17554 | 13.12258 | 35545 ft | 512 kts | 137° |
| 2026-04-25 23:22 | 49.14956 | 13.15994 | 35302 ft | 513 kts | 137° |
| 2026-04-25 23:22 | 49.12354 | 13.19728 | 35046 ft | 513 kts | 137° |
| 2026-04-25 23:22 | 49.10594 | 13.22250 | 34887 ft | 513 kts | 137° |
| 2026-04-25 23:23 | 49.05413 | 13.29654 | 34386 ft | 514 kts | 137° |
| 2026-04-25 23:23 | 49.02803 | 13.33379 | 34136 ft | 514 kts | 137° |
| 2026-04-25 23:23 | 49.00194 | 13.37098 | 33898 ft | 515 kts | 137° |
| 2026-04-25 23:23 | 48.97576 | 13.40822 | 33642 ft | 514 kts | 137° |
| 2026-04-25 23:24 | 48.94966 | 13.44531 | 33383 ft | 514 kts | 137° |
| 2026-04-25 23:24 | 48.92345 | 13.48248 | 33169 ft | 514 kts | 137° |
| 2026-04-25 23:24 | 48.89722 | 13.51962 | 33093 ft | 514 kts | 137° |
| 2026-04-25 23:25 | 48.84479 | 13.59371 | 33091 ft | 514 kts | 137° |
| 2026-04-25 23:25 | 48.79303 | 13.66766 | 33090 ft | 514 kts | 134° |
| 2026-04-25 23:26 | 48.75187 | 13.75535 | 33089 ft | 510 kts | 114° |
| 2026-04-25 23:26 | 48.73019 | 13.85702 | 33084 ft | 506 kts | 100° |
| 2026-04-25 23:26 | 48.72308 | 13.90926 | 32944 ft | 506 kts | 98° |
| 2026-04-25 23:27 | 48.71685 | 13.96162 | 32688 ft | 505 kts | 97° |
| 2026-04-25 23:27 | 48.71082 | 14.01414 | 32448 ft | 506 kts | 97° |
| 2026-04-25 23:27 | 48.70470 | 14.06664 | 32152 ft | 507 kts | 98° |
| 2026-04-25 23:27 | 48.69834 | 14.11926 | 31707 ft | 508 kts | 98° |
| 2026-04-25 23:28 | 48.69177 | 14.17184 | 31240 ft | 509 kts | 98° |
| 2026-04-25 23:28 | 48.68513 | 14.22379 | 30634 ft | 510 kts | 99° |
| 2026-04-25 23:28 | 48.67826 | 14.27661 | 30012 ft | 511 kts | 99° |
| 2026-04-25 23:28 | 48.67137 | 14.32900 | 29354 ft | 506 kts | 99° |
| 2026-04-25 23:29 | 48.66448 | 14.38123 | 28679 ft | 506 kts | 99° |
| 2026-04-25 23:29 | 48.65757 | 14.43343 | 27995 ft | 503 kts | 99° |
| 2026-04-25 23:29 | 48.65072 | 14.48517 | 27327 ft | 499 kts | 99° |
| 2026-04-25 23:29 | 48.64391 | 14.53645 | 26648 ft | 496 kts | 99° |
| 2026-04-25 23:30 | 48.63720 | 14.58682 | 25981 ft | 492 kts | 99° |
| 2026-04-25 23:30 | 48.63036 | 14.63797 | 25297 ft | 488 kts | 99° |
| 2026-04-25 23:30 | 48.62375 | 14.68727 | 24625 ft | 482 kts | 100° |
| 2026-04-25 23:30 | 48.61707 | 14.73692 | 23942 ft | 481 kts | 100° |
| 2026-04-25 23:31 | 48.61040 | 14.78639 | 23256 ft | 478 kts | 100° |
| 2026-04-25 23:31 | 48.60375 | 14.83553 | 22593 ft | 474 kts | 100° |
| 2026-04-25 23:31 | 48.59716 | 14.88401 | 21917 ft | 469 kts | 100° |
| 2026-04-25 23:31 | 48.59060 | 14.93204 | 21243 ft | 465 kts | 100° |
| 2026-04-25 23:32 | 48.58407 | 14.97976 | 20578 ft | 461 kts | 100° |
| 2026-04-25 23:32 | 48.57761 | 15.02693 | 19895 ft | 457 kts | 101° |
| 2026-04-25 23:32 | 48.57119 | 15.07356 | 19217 ft | 452 kts | 101° |
| 2026-04-25 23:32 | 48.56478 | 15.11992 | 18533 ft | 448 kts | 101° |
| 2026-04-25 23:33 | 48.55841 | 15.16589 | 17863 ft | 444 kts | 101° |
| 2026-04-25 23:33 | 48.55211 | 15.21127 | 17303 ft | 440 kts | 101° |
| 2026-04-25 23:33 | 48.54583 | 15.25642 | 17060 ft | 438 kts | 101° |
| 2026-04-25 23:33 | 48.53956 | 15.30133 | 17026 ft | 440 kts | 101° |
| 2026-04-25 23:34 | 48.53330 | 15.34597 | 16996 ft | 438 kts | 101° |
| 2026-04-25 23:34 | 48.52697 | 15.39087 | 16760 ft | 434 kts | 101° |
| 2026-04-25 23:34 | 48.52155 | 15.43560 | 16508 ft | 432 kts | 95° |
| 2026-04-25 23:34 | 48.51831 | 15.48058 | 16259 ft | 430 kts | 94° |
| 2026-04-25 23:35 | 48.51554 | 15.52545 | 16009 ft | 429 kts | 94° |
| 2026-04-25 23:35 | 48.51288 | 15.57028 | 15757 ft | 426 kts | 94° |
| 2026-04-25 23:35 | 48.50972 | 15.61467 | 15638 ft | 426 kts | 98° |
| 2026-04-25 23:35 | 48.50323 | 15.65775 | 15574 ft | 427 kts | 102° |
| 2026-04-25 23:36 | 48.49657 | 15.70137 | 15419 ft | 425 kts | 102° |
| 2026-04-25 23:36 | 48.48933 | 15.74427 | 15229 ft | 416 kts | 110° |
| 2026-04-25 23:36 | 48.47823 | 15.78428 | 15032 ft | 415 kts | 112° |
| 2026-04-25 23:36 | 48.46777 | 15.82526 | 14795 ft | 421 kts | 110° |
| 2026-04-25 23:37 | 48.45761 | 15.86666 | 14540 ft | 420 kts | 110° |
| 2026-04-25 23:37 | 48.44755 | 15.90781 | 14295 ft | 418 kts | 110° |
| 2026-04-25 23:37 | 48.43752 | 15.94881 | 14038 ft | 416 kts | 110° |
| 2026-04-25 23:37 | 48.42752 | 15.98963 | 13786 ft | 414 kts | 110° |
| 2026-04-25 23:38 | 48.41758 | 16.03027 | 13513 ft | 413 kts | 110° |
| 2026-04-25 23:38 | 48.40771 | 16.07068 | 13145 ft | 410 kts | 110° |
| 2026-04-25 23:38 | 48.39771 | 16.11073 | 12837 ft | 408 kts | 111° |
| 2026-04-25 23:38 | 48.38755 | 16.15016 | 12578 ft | 402 kts | 111° |
| 2026-04-25 23:39 | 48.37734 | 16.18967 | 12335 ft | 408 kts | 111° |
| 2026-04-25 23:39 | 48.36711 | 16.22935 | 12084 ft | 404 kts | 111° |
| 2026-04-25 23:39 | 48.35702 | 16.26853 | 11836 ft | 401 kts | 111° |
| 2026-04-25 23:39 | 48.34703 | 16.30725 | 11589 ft | 400 kts | 111° |
| 2026-04-25 23:40 | 48.33700 | 16.34614 | 11334 ft | 395 kts | 111° |
| 2026-04-25 23:40 | 48.32714 | 16.38428 | 11154 ft | 386 kts | 111° |
| 2026-04-25 23:40 | 48.31764 | 16.42092 | 10906 ft | 362 kts | 111° |
| 2026-04-25 23:40 | 48.30885 | 16.45475 | 10637 ft | 334 kts | 111° |
| 2026-04-25 23:41 | 48.29972 | 16.48565 | 10390 ft | 317 kts | 120° |
| 2026-04-25 23:41 | 48.28666 | 16.51233 | 10205 ft | 319 kts | 136° |
| 2026-04-25 23:41 | 48.27001 | 16.53391 | 10031 ft | 315 kts | 145° |
| 2026-04-25 23:41 | 48.25248 | 16.55370 | 9811 ft | 314 kts | 146° |
| 2026-04-25 23:42 | 48.23493 | 16.57326 | 9559 ft | 313 kts | 146° |
| 2026-04-25 23:42 | 48.21776 | 16.59247 | 9314 ft | 313 kts | 146° |
| 2026-04-25 23:42 | 48.20036 | 16.61211 | 9070 ft | 311 kts | 144° |
| 2026-04-25 23:42 | 48.18472 | 16.63459 | 8812 ft | 314 kts | 130° |
| 2026-04-25 23:43 | 48.17305 | 16.66215 | 8559 ft | 312 kts | 117° |
| 2026-04-25 23:43 | 48.16333 | 16.69124 | 8370 ft | 312 kts | 116° |
| 2026-04-25 23:43 | 48.15380 | 16.72054 | 8255 ft | 312 kts | 116° |
| 2026-04-25 23:43 | 48.14427 | 16.74977 | 8131 ft | 312 kts | 116° |
| 2026-04-25 23:44 | 48.13466 | 16.77903 | 7945 ft | 313 kts | 116° |
| 2026-04-25 23:44 | 48.12501 | 16.80824 | 7703 ft | 312 kts | 116° |
| 2026-04-25 23:44 | 48.11538 | 16.83733 | 7402 ft | 312 kts | 116° |
| 2026-04-25 23:44 | 48.10578 | 16.86634 | 7025 ft | 310 kts | 116° |
| 2026-04-25 23:45 | 48.09631 | 16.89490 | 6567 ft | 305 kts | 116° |
| 2026-04-25 23:45 | 48.08683 | 16.92327 | 6120 ft | 304 kts | 116° |
| 2026-04-25 23:45 | 48.07743 | 16.95146 | 5660 ft | 302 kts | 116° |
| 2026-04-25 23:45 | 48.06810 | 16.97948 | 5219 ft | 300 kts | 116° |
| 2026-04-25 23:46 | 48.05861 | 17.00705 | 4770 ft | 297 kts | 122° |
| 2026-04-25 23:46 | 48.04482 | 17.02906 | 4305 ft | 284 kts | 149° |
| 2026-04-25 23:46 | 48.02728 | 17.03896 | 3961 ft | 258 kts | 179° |
| 2026-04-25 23:46 | 48.01061 | 17.03550 | 3637 ft | 233 kts | 210° |
| 2026-04-25 23:47 | 47.99873 | 17.02084 | 3386 ft | 218 kts | 242° |
| 2026-04-25 23:47 | 47.99351 | 16.99980 | 3098 ft | 216 kts | 262° |
| 2026-04-25 23:47 | 47.99161 | 16.97784 | 3005 ft | 217 kts | 271° |
| 2026-04-25 23:47 | 47.99201 | 16.95527 | 3002 ft | 217 kts | 273° |
| 2026-04-25 23:48 | 47.99289 | 16.93287 | 2998 ft | 217 kts | 278° |
| 2026-04-25 23:48 | 47.99648 | 16.91111 | 2999 ft | 215 kts | 292° |
| 2026-04-25 23:48 | 48.00288 | 16.89161 | 2987 ft | 201 kts | 298° |
| 2026-04-25 23:48 | 48.00946 | 16.87344 | 3000 ft | 196 kts | 298° |
| 2026-04-25 23:49 | 48.01576 | 16.85582 | 3000 ft | 194 kts | 297° |
| 2026-04-25 23:49 | 48.02197 | 16.83791 | 2999 ft | 194 kts | 297° |
| 2026-04-25 23:49 | 48.02809 | 16.81992 | 3004 ft | 194 kts | 297° |
| 2026-04-25 23:49 | 48.03419 | 16.80182 | 3011 ft | 195 kts | 297° |
| 2026-04-25 23:50 | 48.04013 | 16.78425 | 2998 ft | 183 kts | 297° |
| 2026-04-25 23:50 | 48.04571 | 16.76805 | 3020 ft | 165 kts | 297° |
| 2026-04-25 23:50 | 48.05065 | 16.75361 | 3010 ft | 151 kts | 297° |
| 2026-04-25 23:50 | 48.05538 | 16.73974 | 2979 ft | 149 kts | 297° |
| 2026-04-25 23:51 | 48.06004 | 16.72595 | 2838 ft | 151 kts | 296° |
| 2026-04-25 23:51 | 48.06459 | 16.71192 | 2586 ft | 149 kts | 295° |
| 2026-04-25 23:51 | 48.06920 | 16.69773 | 2391 ft | 150 kts | 296° |
| 2026-04-25 23:51 | 48.07375 | 16.68384 | 2194 ft | 148 kts | 296° |
| 2026-04-25 23:52 | 48.07806 | 16.67060 | 1984 ft | 134 kts | 296° |
| 2026-04-25 23:52 | 48.08200 | 16.65851 | 1815 ft | 126 kts | 295° |
| 2026-04-25 23:52 | 48.08584 | 16.64674 | 1653 ft | 126 kts | 295° |
| 2026-04-25 23:52 | 48.08967 | 16.63500 | 1474 ft | 125 kts | 296° |
| 2026-04-25 23:53 | 48.09352 | 16.62321 | 1322 ft | 127 kts | 295° |
| 2026-04-25 23:53 | 48.09738 | 16.61134 | 1167 ft | 126 kts | 296° |
| 2026-04-25 23:53 | 48.10125 | 16.59939 | 993 ft | 128 kts | 295° |
| 2026-04-25 23:53 | 48.10513 | 16.58760 | 810 ft | 129 kts | 296° |
| 2026-04-25 23:54 | 48.10909 | 16.57553 | 660 ft | 129 kts | 295° |
| 2026-04-25 23:54 | 48.11257 | 16.56480 | 627 ft | 90 kts | 296° |
| 2026-04-25 23:54 | 48.11453 | 16.55878 | 635 ft | 38 kts | 296° |
| 2026-04-25 23:54 | 48.11542 | 16.55606 | 633 ft | 30 kts | 296° |
| 2026-04-25 23:55 | 48.11664 | 16.55339 | 629 ft | 32 kts | 315° |
| 2026-04-25 23:55 | 48.11835 | 16.55142 | 624 ft | 23 kts | 349° |
| 2026-04-25 23:55 | 48.11852 | 16.55144 | 612 ft | 1 kts | 9° |
| 2026-04-25 23:55 | 48.11871 | 16.55149 | 617 ft | 4 kts | 9° |
| 2026-04-25 23:56 | 48.11909 | 16.55159 | 624 ft | 8 kts | 11° |
| 2026-04-25 23:56 | 48.11985 | 16.55136 | 612 ft | 13 kts | 315° |
| 2026-04-25 23:56 | 48.12026 | 16.55020 | 626 ft | 13 kts | 296° |
| 2026-04-25 23:56 | 48.12075 | 16.54892 | 625 ft | 9 kts | 322° |
| 2026-04-25 23:57 | 48.12085 | 16.54896 | 609 ft | 2 kts | 19° |
| 2026-04-25 23:57 | 48.12119 | 16.54922 | 619 ft | 9 kts | 26° |
| 2026-04-25 23:57 | 48.12147 | 16.54943 | 606 ft | 0 kts | 26° |